<?xml version="1.0" encoding="UTF-8" standalone="no" ?>
<gpx xmlns="http://www.topografix.com/GPX/1/1" xmlns:xsi="http://www.w3.org/2001/XMLSchema-instance" xsi:schemaLocation="http://www.topografix.com/GPX/1/1 http://www.topografix.com/GPX/1/1/gpx.xsd" version="1.1" creator="VisuGPX - https://www.visugpx.com">
  <metadata>
    <name>V - 83 - Lorgues </name>
    <desc><![CDATA[grp_trc:]]></desc>
  </metadata>
  <trk>
    <name><![CDATA[Lorgues ]]></name>
    <cmt><![CDATA[Saint Jaume - Les Mauniers - Vigne Aubière ]]></cmt>
    <desc><![CDATA[comment ...]]></desc>
    <trkseg>
      <trkpt lat="43.48138" lon="6.32812">
        <ele>143</ele>
        <time>2023-03-03T12:48:26Z</time>
      </trkpt>
      <trkpt lat="43.48138" lon="6.32812">
        <ele>143</ele>
        <time>2023-03-03T12:48:27Z</time>
      </trkpt>
      <trkpt lat="43.48134" lon="6.3281">
        <ele>142</ele>
        <time>2023-03-03T12:48:39Z</time>
      </trkpt>
      <trkpt lat="43.4813" lon="6.32811">
        <ele>142</ele>
        <time>2023-03-03T12:48:50Z</time>
      </trkpt>
      <trkpt lat="43.48125" lon="6.3281">
        <ele>143</ele>
        <time>2023-03-03T12:48:56Z</time>
      </trkpt>
      <trkpt lat="43.48122" lon="6.32814">
        <ele>144</ele>
        <time>2023-03-03T12:49:01Z</time>
      </trkpt>
      <trkpt lat="43.48119" lon="6.32813">
        <ele>144</ele>
        <time>2023-03-03T12:49:09Z</time>
      </trkpt>
      <trkpt lat="43.48115" lon="6.32812">
        <ele>145</ele>
        <time>2023-03-03T12:49:15Z</time>
      </trkpt>
      <trkpt lat="43.48111" lon="6.32807">
        <ele>144</ele>
        <time>2023-03-03T12:49:20Z</time>
      </trkpt>
      <trkpt lat="43.4811" lon="6.32803">
        <ele>144</ele>
        <time>2023-03-03T12:49:24Z</time>
      </trkpt>
      <trkpt lat="43.48107" lon="6.32798">
        <ele>142</ele>
        <time>2023-03-03T12:49:29Z</time>
      </trkpt>
      <trkpt lat="43.48104" lon="6.32795">
        <ele>142</ele>
        <time>2023-03-03T12:49:33Z</time>
      </trkpt>
      <trkpt lat="43.481" lon="6.32786">
        <ele>142</ele>
        <time>2023-03-03T12:49:41Z</time>
      </trkpt>
      <trkpt lat="43.48094" lon="6.32778">
        <ele>144</ele>
        <time>2023-03-03T12:49:50Z</time>
      </trkpt>
      <trkpt lat="43.4809" lon="6.32774">
        <ele>143</ele>
        <time>2023-03-03T12:49:55Z</time>
      </trkpt>
      <trkpt lat="43.4806" lon="6.32747">
        <ele>143</ele>
        <time>2023-03-03T12:50:29Z</time>
      </trkpt>
      <trkpt lat="43.48051" lon="6.32742">
        <ele>148</ele>
        <time>2023-03-03T12:50:40Z</time>
      </trkpt>
      <trkpt lat="43.48041" lon="6.32741">
        <ele>150</ele>
        <time>2023-03-03T12:50:50Z</time>
      </trkpt>
      <trkpt lat="43.48031" lon="6.32739">
        <ele>149</ele>
        <time>2023-03-03T12:50:59Z</time>
      </trkpt>
      <trkpt lat="43.48022" lon="6.3274">
        <ele>149</ele>
        <time>2023-03-03T12:51:08Z</time>
      </trkpt>
      <trkpt lat="43.48012" lon="6.32742">
        <ele>152</ele>
        <time>2023-03-03T12:51:18Z</time>
      </trkpt>
      <trkpt lat="43.48002" lon="6.32746">
        <ele>154</ele>
        <time>2023-03-03T12:51:27Z</time>
      </trkpt>
      <trkpt lat="43.47992" lon="6.32749">
        <ele>160</ele>
        <time>2023-03-03T12:51:35Z</time>
      </trkpt>
      <trkpt lat="43.47983" lon="6.32752">
        <ele>163</ele>
        <time>2023-03-03T12:51:44Z</time>
      </trkpt>
      <trkpt lat="43.47974" lon="6.32757">
        <ele>165</ele>
        <time>2023-03-03T12:51:53Z</time>
      </trkpt>
      <trkpt lat="43.47965" lon="6.3276">
        <ele>165</ele>
        <time>2023-03-03T12:52:01Z</time>
      </trkpt>
      <trkpt lat="43.47955" lon="6.32762">
        <ele>164</ele>
        <time>2023-03-03T12:52:10Z</time>
      </trkpt>
      <trkpt lat="43.47945" lon="6.32763">
        <ele>161</ele>
        <time>2023-03-03T12:52:19Z</time>
      </trkpt>
      <trkpt lat="43.47918" lon="6.3276">
        <ele>159</ele>
        <time>2023-03-03T12:52:43Z</time>
      </trkpt>
      <trkpt lat="43.47911" lon="6.32752">
        <ele>154</ele>
        <time>2023-03-03T12:52:51Z</time>
      </trkpt>
      <trkpt lat="43.47895" lon="6.32736">
        <ele>150</ele>
        <time>2023-03-03T12:53:06Z</time>
      </trkpt>
      <trkpt lat="43.47886" lon="6.3273">
        <ele>151</ele>
        <time>2023-03-03T12:53:14Z</time>
      </trkpt>
      <trkpt lat="43.47879" lon="6.32722">
        <ele>153</ele>
        <time>2023-03-03T12:53:21Z</time>
      </trkpt>
      <trkpt lat="43.47871" lon="6.32715">
        <ele>150</ele>
        <time>2023-03-03T12:53:30Z</time>
      </trkpt>
      <trkpt lat="43.47847" lon="6.32692">
        <ele>151</ele>
        <time>2023-03-03T12:53:56Z</time>
      </trkpt>
      <trkpt lat="43.47841" lon="6.32686">
        <ele>148</ele>
        <time>2023-03-03T12:54:02Z</time>
      </trkpt>
      <trkpt lat="43.47837" lon="6.32686">
        <ele>147</ele>
        <time>2023-03-03T12:54:08Z</time>
      </trkpt>
      <trkpt lat="43.47833" lon="6.32683">
        <ele>147</ele>
        <time>2023-03-03T12:54:23Z</time>
      </trkpt>
      <trkpt lat="43.47826" lon="6.32672">
        <ele>144</ele>
        <time>2023-03-03T12:54:36Z</time>
      </trkpt>
      <trkpt lat="43.47825" lon="6.32666">
        <ele>145</ele>
        <time>2023-03-03T12:54:40Z</time>
      </trkpt>
      <trkpt lat="43.47822" lon="6.32657">
        <ele>148</ele>
        <time>2023-03-03T12:54:48Z</time>
      </trkpt>
      <trkpt lat="43.47821" lon="6.32652">
        <ele>148</ele>
        <time>2023-03-03T12:54:53Z</time>
      </trkpt>
      <trkpt lat="43.47819" lon="6.32648">
        <ele>149</ele>
        <time>2023-03-03T12:54:57Z</time>
      </trkpt>
      <trkpt lat="43.47817" lon="6.32644">
        <ele>151</ele>
        <time>2023-03-03T12:55:02Z</time>
      </trkpt>
      <trkpt lat="43.47816" lon="6.32639">
        <ele>152</ele>
        <time>2023-03-03T12:55:07Z</time>
      </trkpt>
      <trkpt lat="43.47811" lon="6.32631">
        <ele>152</ele>
        <time>2023-03-03T12:55:17Z</time>
      </trkpt>
      <trkpt lat="43.47809" lon="6.32626">
        <ele>153</ele>
        <time>2023-03-03T12:55:22Z</time>
      </trkpt>
      <trkpt lat="43.47808" lon="6.32622">
        <ele>153</ele>
        <time>2023-03-03T12:55:27Z</time>
      </trkpt>
      <trkpt lat="43.47805" lon="6.32618">
        <ele>153</ele>
        <time>2023-03-03T12:55:32Z</time>
      </trkpt>
      <trkpt lat="43.47803" lon="6.32614">
        <ele>153</ele>
        <time>2023-03-03T12:55:37Z</time>
      </trkpt>
      <trkpt lat="43.47801" lon="6.3261">
        <ele>152</ele>
        <time>2023-03-03T12:55:42Z</time>
      </trkpt>
      <trkpt lat="43.47799" lon="6.32606">
        <ele>152</ele>
        <time>2023-03-03T12:55:46Z</time>
      </trkpt>
      <trkpt lat="43.47797" lon="6.32601">
        <ele>152</ele>
        <time>2023-03-03T12:55:50Z</time>
      </trkpt>
      <trkpt lat="43.47794" lon="6.32592">
        <ele>150</ele>
        <time>2023-03-03T12:55:58Z</time>
      </trkpt>
      <trkpt lat="43.47791" lon="6.32587">
        <ele>149</ele>
        <time>2023-03-03T12:56:02Z</time>
      </trkpt>
      <trkpt lat="43.47785" lon="6.32574">
        <ele>150</ele>
        <time>2023-03-03T12:56:14Z</time>
      </trkpt>
      <trkpt lat="43.47784" lon="6.32569">
        <ele>150</ele>
        <time>2023-03-03T12:56:18Z</time>
      </trkpt>
      <trkpt lat="43.47782" lon="6.32556">
        <ele>150</ele>
        <time>2023-03-03T12:56:30Z</time>
      </trkpt>
      <trkpt lat="43.47781" lon="6.32551">
        <ele>150</ele>
        <time>2023-03-03T12:56:35Z</time>
      </trkpt>
      <trkpt lat="43.47782" lon="6.32541">
        <ele>149</ele>
        <time>2023-03-03T12:56:43Z</time>
      </trkpt>
      <trkpt lat="43.47782" lon="6.32536">
        <ele>149</ele>
        <time>2023-03-03T12:56:48Z</time>
      </trkpt>
      <trkpt lat="43.47782" lon="6.32531">
        <ele>149</ele>
        <time>2023-03-03T12:56:55Z</time>
      </trkpt>
      <trkpt lat="43.47782" lon="6.32525">
        <ele>145</ele>
        <time>2023-03-03T12:57:01Z</time>
      </trkpt>
      <trkpt lat="43.47782" lon="6.32521">
        <ele>142</ele>
        <time>2023-03-03T12:57:06Z</time>
      </trkpt>
      <trkpt lat="43.47781" lon="6.32515">
        <ele>140</ele>
        <time>2023-03-03T12:57:11Z</time>
      </trkpt>
      <trkpt lat="43.47781" lon="6.3251">
        <ele>138</ele>
        <time>2023-03-03T12:59:14Z</time>
      </trkpt>
      <trkpt lat="43.47781" lon="6.32504">
        <ele>138</ele>
        <time>2023-03-03T12:59:18Z</time>
      </trkpt>
      <trkpt lat="43.47782" lon="6.32493">
        <ele>137</ele>
        <time>2023-03-03T12:59:26Z</time>
      </trkpt>
      <trkpt lat="43.47783" lon="6.32487">
        <ele>137</ele>
        <time>2023-03-03T12:59:30Z</time>
      </trkpt>
      <trkpt lat="43.47782" lon="6.32482">
        <ele>136</ele>
        <time>2023-03-03T12:59:34Z</time>
      </trkpt>
      <trkpt lat="43.47781" lon="6.3247">
        <ele>137</ele>
        <time>2023-03-03T12:59:42Z</time>
      </trkpt>
      <trkpt lat="43.4778" lon="6.32464">
        <ele>136</ele>
        <time>2023-03-03T12:59:46Z</time>
      </trkpt>
      <trkpt lat="43.47779" lon="6.32459">
        <ele>136</ele>
        <time>2023-03-03T12:59:50Z</time>
      </trkpt>
      <trkpt lat="43.47776" lon="6.32454">
        <ele>136</ele>
        <time>2023-03-03T12:59:54Z</time>
      </trkpt>
      <trkpt lat="43.47772" lon="6.32442">
        <ele>137</ele>
        <time>2023-03-03T13:00:02Z</time>
      </trkpt>
      <trkpt lat="43.47769" lon="6.32437">
        <ele>139</ele>
        <time>2023-03-03T13:00:06Z</time>
      </trkpt>
      <trkpt lat="43.47767" lon="6.32432">
        <ele>138</ele>
        <time>2023-03-03T13:00:10Z</time>
      </trkpt>
      <trkpt lat="43.47763" lon="6.32422">
        <ele>137</ele>
        <time>2023-03-03T13:00:17Z</time>
      </trkpt>
      <trkpt lat="43.47755" lon="6.32394">
        <ele>134</ele>
        <time>2023-03-03T13:00:37Z</time>
      </trkpt>
      <trkpt lat="43.47753" lon="6.3239">
        <ele>134</ele>
        <time>2023-03-03T13:00:40Z</time>
      </trkpt>
      <trkpt lat="43.4775" lon="6.3238">
        <ele>133</ele>
        <time>2023-03-03T13:00:47Z</time>
      </trkpt>
      <trkpt lat="43.47744" lon="6.32367">
        <ele>133</ele>
        <time>2023-03-03T13:00:56Z</time>
      </trkpt>
      <trkpt lat="43.47742" lon="6.32364">
        <ele>133</ele>
        <time>2023-03-03T13:00:59Z</time>
      </trkpt>
      <trkpt lat="43.47736" lon="6.32356">
        <ele>136</ele>
        <time>2023-03-03T13:01:07Z</time>
      </trkpt>
      <trkpt lat="43.47734" lon="6.32352">
        <ele>137</ele>
        <time>2023-03-03T13:01:11Z</time>
      </trkpt>
      <trkpt lat="43.47737" lon="6.3235">
        <ele>140</ele>
        <time>2023-03-03T13:01:18Z</time>
      </trkpt>
      <trkpt lat="43.47731" lon="6.3234">
        <ele>140</ele>
        <time>2023-03-03T13:01:19Z</time>
      </trkpt>
      <trkpt lat="43.4773" lon="6.32334">
        <ele>137</ele>
        <time>2023-03-03T13:01:30Z</time>
      </trkpt>
      <trkpt lat="43.47726" lon="6.32329">
        <ele>137</ele>
        <time>2023-03-03T13:01:33Z</time>
      </trkpt>
      <trkpt lat="43.47723" lon="6.32322">
        <ele>137</ele>
        <time>2023-03-03T13:01:38Z</time>
      </trkpt>
      <trkpt lat="43.4772" lon="6.32317">
        <ele>138</ele>
        <time>2023-03-03T13:01:41Z</time>
      </trkpt>
      <trkpt lat="43.47721" lon="6.32311">
        <ele>136</ele>
        <time>2023-03-03T13:01:46Z</time>
      </trkpt>
      <trkpt lat="43.47717" lon="6.32295">
        <ele>136</ele>
        <time>2023-03-03T13:02:00Z</time>
      </trkpt>
      <trkpt lat="43.47714" lon="6.32289">
        <ele>138</ele>
        <time>2023-03-03T13:02:04Z</time>
      </trkpt>
      <trkpt lat="43.47713" lon="6.32284">
        <ele>138</ele>
        <time>2023-03-03T13:02:07Z</time>
      </trkpt>
      <trkpt lat="43.4771" lon="6.3228">
        <ele>138</ele>
        <time>2023-03-03T13:02:11Z</time>
      </trkpt>
      <trkpt lat="43.47703" lon="6.32261">
        <ele>139</ele>
        <time>2023-03-03T13:02:24Z</time>
      </trkpt>
      <trkpt lat="43.47699" lon="6.32249">
        <ele>143</ele>
        <time>2023-03-03T13:02:32Z</time>
      </trkpt>
      <trkpt lat="43.47694" lon="6.32239">
        <ele>145</ele>
        <time>2023-03-03T13:02:40Z</time>
      </trkpt>
      <trkpt lat="43.47682" lon="6.32218">
        <ele>149</ele>
        <time>2023-03-03T13:03:04Z</time>
      </trkpt>
      <trkpt lat="43.4768" lon="6.32213">
        <ele>151</ele>
        <time>2023-03-03T13:03:08Z</time>
      </trkpt>
      <trkpt lat="43.47679" lon="6.32209">
        <ele>152</ele>
        <time>2023-03-03T13:03:13Z</time>
      </trkpt>
      <trkpt lat="43.47683" lon="6.3221">
        <ele>148</ele>
        <time>2023-03-03T13:03:16Z</time>
      </trkpt>
      <trkpt lat="43.47685" lon="6.32208">
        <ele>146</ele>
        <time>2023-03-03T13:03:24Z</time>
      </trkpt>
      <trkpt lat="43.47682" lon="6.32204">
        <ele>144</ele>
        <time>2023-03-03T13:03:28Z</time>
      </trkpt>
      <trkpt lat="43.47679" lon="6.32201">
        <ele>142</ele>
        <time>2023-03-03T13:03:32Z</time>
      </trkpt>
      <trkpt lat="43.47676" lon="6.32197">
        <ele>141</ele>
        <time>2023-03-03T13:03:36Z</time>
      </trkpt>
      <trkpt lat="43.47675" lon="6.32192">
        <ele>141</ele>
        <time>2023-03-03T13:03:40Z</time>
      </trkpt>
      <trkpt lat="43.47677" lon="6.32187">
        <ele>141</ele>
        <time>2023-03-03T13:04:26Z</time>
      </trkpt>
      <trkpt lat="43.47676" lon="6.32182">
        <ele>141</ele>
        <time>2023-03-03T13:04:28Z</time>
      </trkpt>
      <trkpt lat="43.47673" lon="6.32179">
        <ele>143</ele>
        <time>2023-03-03T13:04:32Z</time>
      </trkpt>
      <trkpt lat="43.4767" lon="6.32176">
        <ele>145</ele>
        <time>2023-03-03T13:04:36Z</time>
      </trkpt>
      <trkpt lat="43.47641" lon="6.32137">
        <ele>145</ele>
        <time>2023-03-03T13:05:14Z</time>
      </trkpt>
      <trkpt lat="43.47636" lon="6.32126">
        <ele>143</ele>
        <time>2023-03-03T13:05:25Z</time>
      </trkpt>
      <trkpt lat="43.47628" lon="6.32117">
        <ele>141</ele>
        <time>2023-03-03T13:05:33Z</time>
      </trkpt>
      <trkpt lat="43.47621" lon="6.32109">
        <ele>141</ele>
        <time>2023-03-03T13:05:39Z</time>
      </trkpt>
      <trkpt lat="43.47616" lon="6.32098">
        <ele>149</ele>
        <time>2023-03-03T13:05:47Z</time>
      </trkpt>
      <trkpt lat="43.47603" lon="6.3208">
        <ele>151</ele>
        <time>2023-03-03T13:06:04Z</time>
      </trkpt>
      <trkpt lat="43.47601" lon="6.32068">
        <ele>150</ele>
        <time>2023-03-03T13:06:23Z</time>
      </trkpt>
      <trkpt lat="43.47588" lon="6.32032">
        <ele>152</ele>
        <time>2023-03-03T13:07:02Z</time>
      </trkpt>
      <trkpt lat="43.47584" lon="6.32008">
        <ele>151</ele>
        <time>2023-03-03T13:07:22Z</time>
      </trkpt>
      <trkpt lat="43.47583" lon="6.32002">
        <ele>150</ele>
        <time>2023-03-03T13:07:26Z</time>
      </trkpt>
      <trkpt lat="43.4758" lon="6.31998">
        <ele>149</ele>
        <time>2023-03-03T13:07:30Z</time>
      </trkpt>
      <trkpt lat="43.47579" lon="6.31992">
        <ele>150</ele>
        <time>2023-03-03T13:07:34Z</time>
      </trkpt>
      <trkpt lat="43.47577" lon="6.31981">
        <ele>150</ele>
        <time>2023-03-03T13:07:42Z</time>
      </trkpt>
      <trkpt lat="43.47574" lon="6.31972">
        <ele>149</ele>
        <time>2023-03-03T13:07:49Z</time>
      </trkpt>
      <trkpt lat="43.47574" lon="6.31966">
        <ele>149</ele>
        <time>2023-03-03T13:07:53Z</time>
      </trkpt>
      <trkpt lat="43.47571" lon="6.31964">
        <ele>146</ele>
        <time>2023-03-03T13:07:58Z</time>
      </trkpt>
      <trkpt lat="43.47567" lon="6.31963">
        <ele>144</ele>
        <time>2023-03-03T13:08:03Z</time>
      </trkpt>
      <trkpt lat="43.47564" lon="6.31961">
        <ele>143</ele>
        <time>2023-03-03T13:08:07Z</time>
      </trkpt>
      <trkpt lat="43.4756" lon="6.31962">
        <ele>143</ele>
        <time>2023-03-03T13:08:11Z</time>
      </trkpt>
      <trkpt lat="43.47553" lon="6.31957">
        <ele>147</ele>
        <time>2023-03-03T13:08:33Z</time>
      </trkpt>
      <trkpt lat="43.47552" lon="6.31952">
        <ele>148</ele>
        <time>2023-03-03T13:08:55Z</time>
      </trkpt>
      <trkpt lat="43.47557" lon="6.31944">
        <ele>149</ele>
        <time>2023-03-03T13:09:09Z</time>
      </trkpt>
      <trkpt lat="43.47559" lon="6.3194">
        <ele>149</ele>
        <time>2023-03-03T13:09:14Z</time>
      </trkpt>
      <trkpt lat="43.47561" lon="6.31935">
        <ele>149</ele>
        <time>2023-03-03T13:09:19Z</time>
      </trkpt>
      <trkpt lat="43.47552" lon="6.31894">
        <ele>149</ele>
        <time>2023-03-03T13:09:49Z</time>
      </trkpt>
      <trkpt lat="43.47548" lon="6.31879">
        <ele>150</ele>
        <time>2023-03-03T13:10:02Z</time>
      </trkpt>
      <trkpt lat="43.47544" lon="6.31865">
        <ele>150</ele>
        <time>2023-03-03T13:10:14Z</time>
      </trkpt>
      <trkpt lat="43.47542" lon="6.31861">
        <ele>149</ele>
        <time>2023-03-03T13:10:18Z</time>
      </trkpt>
      <trkpt lat="43.47538" lon="6.31846">
        <ele>148</ele>
        <time>2023-03-03T13:10:30Z</time>
      </trkpt>
      <trkpt lat="43.47537" lon="6.31841">
        <ele>149</ele>
        <time>2023-03-03T13:10:34Z</time>
      </trkpt>
      <trkpt lat="43.47535" lon="6.31831">
        <ele>151</ele>
        <time>2023-03-03T13:10:41Z</time>
      </trkpt>
      <trkpt lat="43.47533" lon="6.3182">
        <ele>151</ele>
        <time>2023-03-03T13:10:51Z</time>
      </trkpt>
      <trkpt lat="43.4753" lon="6.3181">
        <ele>152</ele>
        <time>2023-03-03T13:11:00Z</time>
      </trkpt>
      <trkpt lat="43.47528" lon="6.31805">
        <ele>151</ele>
        <time>2023-03-03T13:11:04Z</time>
      </trkpt>
      <trkpt lat="43.47527" lon="6.318">
        <ele>151</ele>
        <time>2023-03-03T13:11:08Z</time>
      </trkpt>
      <trkpt lat="43.47524" lon="6.3179">
        <ele>152</ele>
        <time>2023-03-03T13:11:16Z</time>
      </trkpt>
      <trkpt lat="43.47521" lon="6.31747">
        <ele>153</ele>
        <time>2023-03-03T13:11:49Z</time>
      </trkpt>
      <trkpt lat="43.4752" lon="6.31742">
        <ele>153</ele>
        <time>2023-03-03T13:11:53Z</time>
      </trkpt>
      <trkpt lat="43.47518" lon="6.31727">
        <ele>153</ele>
        <time>2023-03-03T13:12:05Z</time>
      </trkpt>
      <trkpt lat="43.47517" lon="6.31722">
        <ele>152</ele>
        <time>2023-03-03T13:12:10Z</time>
      </trkpt>
      <trkpt lat="43.47516" lon="6.31717">
        <ele>153</ele>
        <time>2023-03-03T13:12:14Z</time>
      </trkpt>
      <trkpt lat="43.47517" lon="6.31711">
        <ele>155</ele>
        <time>2023-03-03T13:12:18Z</time>
      </trkpt>
      <trkpt lat="43.47516" lon="6.31706">
        <ele>155</ele>
        <time>2023-03-03T13:12:22Z</time>
      </trkpt>
      <trkpt lat="43.47514" lon="6.317">
        <ele>154</ele>
        <time>2023-03-03T13:12:26Z</time>
      </trkpt>
      <trkpt lat="43.47512" lon="6.31695">
        <ele>154</ele>
        <time>2023-03-03T13:12:30Z</time>
      </trkpt>
      <trkpt lat="43.4751" lon="6.31691">
        <ele>154</ele>
        <time>2023-03-03T13:12:34Z</time>
      </trkpt>
      <trkpt lat="43.4751" lon="6.31686">
        <ele>155</ele>
        <time>2023-03-03T13:12:39Z</time>
      </trkpt>
      <trkpt lat="43.47508" lon="6.31682">
        <ele>155</ele>
        <time>2023-03-03T13:12:43Z</time>
      </trkpt>
      <trkpt lat="43.47508" lon="6.31677">
        <ele>156</ele>
        <time>2023-03-03T13:12:48Z</time>
      </trkpt>
      <trkpt lat="43.47509" lon="6.31672">
        <ele>153</ele>
        <time>2023-03-03T13:13:24Z</time>
      </trkpt>
      <trkpt lat="43.47511" lon="6.31667">
        <ele>152</ele>
        <time>2023-03-03T13:13:26Z</time>
      </trkpt>
      <trkpt lat="43.47513" lon="6.31663">
        <ele>153</ele>
        <time>2023-03-03T13:13:29Z</time>
      </trkpt>
      <trkpt lat="43.47511" lon="6.3166">
        <ele>154</ele>
        <time>2023-03-03T13:13:33Z</time>
      </trkpt>
      <trkpt lat="43.47508" lon="6.31656">
        <ele>152</ele>
        <time>2023-03-03T13:13:36Z</time>
      </trkpt>
      <trkpt lat="43.47511" lon="6.31634">
        <ele>153</ele>
        <time>2023-03-03T13:13:54Z</time>
      </trkpt>
      <trkpt lat="43.47512" lon="6.31628">
        <ele>154</ele>
        <time>2023-03-03T13:13:58Z</time>
      </trkpt>
      <trkpt lat="43.47511" lon="6.31623">
        <ele>155</ele>
        <time>2023-03-03T13:14:03Z</time>
      </trkpt>
      <trkpt lat="43.4751" lon="6.31618">
        <ele>154</ele>
        <time>2023-03-03T13:14:07Z</time>
      </trkpt>
      <trkpt lat="43.4751" lon="6.31607">
        <ele>155</ele>
        <time>2023-03-03T13:14:16Z</time>
      </trkpt>
      <trkpt lat="43.47513" lon="6.31602">
        <ele>156</ele>
        <time>2023-03-03T13:14:20Z</time>
      </trkpt>
      <trkpt lat="43.47516" lon="6.31594">
        <ele>159</ele>
        <time>2023-03-03T13:14:26Z</time>
      </trkpt>
      <trkpt lat="43.47517" lon="6.31588">
        <ele>160</ele>
        <time>2023-03-03T13:14:30Z</time>
      </trkpt>
      <trkpt lat="43.47516" lon="6.31583">
        <ele>160</ele>
        <time>2023-03-03T13:14:34Z</time>
      </trkpt>
      <trkpt lat="43.47516" lon="6.31574">
        <ele>158</ele>
        <time>2023-03-03T13:14:42Z</time>
      </trkpt>
      <trkpt lat="43.47516" lon="6.31568">
        <ele>158</ele>
        <time>2023-03-03T13:14:47Z</time>
      </trkpt>
      <trkpt lat="43.47517" lon="6.31563">
        <ele>158</ele>
        <time>2023-03-03T13:14:51Z</time>
      </trkpt>
      <trkpt lat="43.47518" lon="6.31558">
        <ele>158</ele>
        <time>2023-03-03T13:14:55Z</time>
      </trkpt>
      <trkpt lat="43.47521" lon="6.31543">
        <ele>159</ele>
        <time>2023-03-03T13:15:08Z</time>
      </trkpt>
      <trkpt lat="43.47526" lon="6.31533">
        <ele>157</ele>
        <time>2023-03-03T13:15:18Z</time>
      </trkpt>
      <trkpt lat="43.47527" lon="6.31523">
        <ele>155</ele>
        <time>2023-03-03T13:15:28Z</time>
      </trkpt>
      <trkpt lat="43.47532" lon="6.31508">
        <ele>158</ele>
        <time>2023-03-03T13:15:39Z</time>
      </trkpt>
      <trkpt lat="43.47539" lon="6.31494">
        <ele>165</ele>
        <time>2023-03-03T13:15:57Z</time>
      </trkpt>
      <trkpt lat="43.47542" lon="6.31489">
        <ele>166</ele>
        <time>2023-03-03T13:16:03Z</time>
      </trkpt>
      <trkpt lat="43.47544" lon="6.31479">
        <ele>167</ele>
        <time>2023-03-03T13:16:13Z</time>
      </trkpt>
      <trkpt lat="43.47543" lon="6.31473">
        <ele>164</ele>
        <time>2023-03-03T13:16:17Z</time>
      </trkpt>
      <trkpt lat="43.47541" lon="6.31469">
        <ele>164</ele>
        <time>2023-03-03T13:16:20Z</time>
      </trkpt>
      <trkpt lat="43.47543" lon="6.31464">
        <ele>165</ele>
        <time>2023-03-03T13:16:24Z</time>
      </trkpt>
      <trkpt lat="43.47544" lon="6.31458">
        <ele>166</ele>
        <time>2023-03-03T13:16:39Z</time>
      </trkpt>
      <trkpt lat="43.47545" lon="6.31454">
        <ele>165</ele>
        <time>2023-03-03T13:16:49Z</time>
      </trkpt>
      <trkpt lat="43.47544" lon="6.31449">
        <ele>163</ele>
        <time>2023-03-03T13:16:57Z</time>
      </trkpt>
      <trkpt lat="43.47547" lon="6.31446">
        <ele>163</ele>
        <time>2023-03-03T13:17:16Z</time>
      </trkpt>
      <trkpt lat="43.47549" lon="6.31436">
        <ele>161</ele>
        <time>2023-03-03T13:17:29Z</time>
      </trkpt>
      <trkpt lat="43.4755" lon="6.31425">
        <ele>162</ele>
        <time>2023-03-03T13:17:39Z</time>
      </trkpt>
      <trkpt lat="43.4755" lon="6.3142">
        <ele>162</ele>
        <time>2023-03-03T13:17:44Z</time>
      </trkpt>
      <trkpt lat="43.47552" lon="6.31415">
        <ele>161</ele>
        <time>2023-03-03T13:17:52Z</time>
      </trkpt>
      <trkpt lat="43.47553" lon="6.3141">
        <ele>161</ele>
        <time>2023-03-03T13:17:58Z</time>
      </trkpt>
      <trkpt lat="43.47553" lon="6.31403">
        <ele>162</ele>
        <time>2023-03-03T13:18:07Z</time>
      </trkpt>
      <trkpt lat="43.47556" lon="6.31385">
        <ele>160</ele>
        <time>2023-03-03T13:18:21Z</time>
      </trkpt>
      <trkpt lat="43.47559" lon="6.31369">
        <ele>158</ele>
        <time>2023-03-03T13:18:38Z</time>
      </trkpt>
      <trkpt lat="43.47558" lon="6.31356">
        <ele>157</ele>
        <time>2023-03-03T13:18:49Z</time>
      </trkpt>
      <trkpt lat="43.47556" lon="6.3133">
        <ele>162</ele>
        <time>2023-03-03T13:19:08Z</time>
      </trkpt>
      <trkpt lat="43.47557" lon="6.31324">
        <ele>163</ele>
        <time>2023-03-03T13:19:12Z</time>
      </trkpt>
      <trkpt lat="43.47557" lon="6.31314">
        <ele>163</ele>
        <time>2023-03-03T13:19:20Z</time>
      </trkpt>
      <trkpt lat="43.47558" lon="6.31308">
        <ele>164</ele>
        <time>2023-03-03T13:19:24Z</time>
      </trkpt>
      <trkpt lat="43.47559" lon="6.31303">
        <ele>164</ele>
        <time>2023-03-03T13:19:27Z</time>
      </trkpt>
      <trkpt lat="43.47561" lon="6.31297">
        <ele>165</ele>
        <time>2023-03-03T13:19:31Z</time>
      </trkpt>
      <trkpt lat="43.47562" lon="6.31293">
        <ele>164</ele>
        <time>2023-03-03T13:19:34Z</time>
      </trkpt>
      <trkpt lat="43.47562" lon="6.31287">
        <ele>164</ele>
        <time>2023-03-03T13:20:32Z</time>
      </trkpt>
      <trkpt lat="43.47562" lon="6.3128">
        <ele>163</ele>
        <time>2023-03-03T13:20:38Z</time>
      </trkpt>
      <trkpt lat="43.47564" lon="6.31276">
        <ele>162</ele>
        <time>2023-03-03T13:20:41Z</time>
      </trkpt>
      <trkpt lat="43.47566" lon="6.31271">
        <ele>160</ele>
        <time>2023-03-03T13:20:46Z</time>
      </trkpt>
      <trkpt lat="43.47579" lon="6.31261">
        <ele>159</ele>
        <time>2023-03-03T13:21:04Z</time>
      </trkpt>
      <trkpt lat="43.47582" lon="6.31257">
        <ele>159</ele>
        <time>2023-03-03T13:21:10Z</time>
      </trkpt>
      <trkpt lat="43.47584" lon="6.31253">
        <ele>157</ele>
        <time>2023-03-03T13:21:15Z</time>
      </trkpt>
      <trkpt lat="43.47588" lon="6.31249">
        <ele>157</ele>
        <time>2023-03-03T13:21:21Z</time>
      </trkpt>
      <trkpt lat="43.47591" lon="6.31247">
        <ele>159</ele>
        <time>2023-03-03T13:21:27Z</time>
      </trkpt>
      <trkpt lat="43.47602" lon="6.3125">
        <ele>157</ele>
        <time>2023-03-03T13:21:54Z</time>
      </trkpt>
      <trkpt lat="43.47603" lon="6.31245">
        <ele>159</ele>
        <time>2023-03-03T13:22:01Z</time>
      </trkpt>
      <trkpt lat="43.47601" lon="6.31241">
        <ele>160</ele>
        <time>2023-03-03T13:22:06Z</time>
      </trkpt>
      <trkpt lat="43.476" lon="6.31236">
        <ele>161</ele>
        <time>2023-03-03T13:22:10Z</time>
      </trkpt>
      <trkpt lat="43.476" lon="6.31231">
        <ele>161</ele>
        <time>2023-03-03T13:22:14Z</time>
      </trkpt>
      <trkpt lat="43.47604" lon="6.31218">
        <ele>162</ele>
        <time>2023-03-03T13:22:26Z</time>
      </trkpt>
      <trkpt lat="43.47605" lon="6.31212">
        <ele>161</ele>
        <time>2023-03-03T13:22:31Z</time>
      </trkpt>
      <trkpt lat="43.47606" lon="6.31208">
        <ele>161</ele>
        <time>2023-03-03T13:22:36Z</time>
      </trkpt>
      <trkpt lat="43.47612" lon="6.31194">
        <ele>160</ele>
        <time>2023-03-03T13:22:49Z</time>
      </trkpt>
      <trkpt lat="43.47616" lon="6.31186">
        <ele>158</ele>
        <time>2023-03-03T13:22:58Z</time>
      </trkpt>
      <trkpt lat="43.47624" lon="6.31163">
        <ele>157</ele>
        <time>2023-03-03T13:23:18Z</time>
      </trkpt>
      <trkpt lat="43.47627" lon="6.31154">
        <ele>156</ele>
        <time>2023-03-03T13:23:26Z</time>
      </trkpt>
      <trkpt lat="43.47627" lon="6.31149">
        <ele>155</ele>
        <time>2023-03-03T13:23:30Z</time>
      </trkpt>
      <trkpt lat="43.47628" lon="6.31144">
        <ele>155</ele>
        <time>2023-03-03T13:23:34Z</time>
      </trkpt>
      <trkpt lat="43.47629" lon="6.3114">
        <ele>153</ele>
        <time>2023-03-03T13:23:37Z</time>
      </trkpt>
      <trkpt lat="43.47631" lon="6.31135">
        <ele>152</ele>
        <time>2023-03-03T13:23:40Z</time>
      </trkpt>
      <trkpt lat="43.47632" lon="6.31131">
        <ele>153</ele>
        <time>2023-03-03T13:23:43Z</time>
      </trkpt>
      <trkpt lat="43.47637" lon="6.31116">
        <ele>151</ele>
        <time>2023-03-03T13:23:53Z</time>
      </trkpt>
      <trkpt lat="43.47639" lon="6.31111">
        <ele>153</ele>
        <time>2023-03-03T13:23:57Z</time>
      </trkpt>
      <trkpt lat="43.4764" lon="6.31106">
        <ele>153</ele>
        <time>2023-03-03T13:24:01Z</time>
      </trkpt>
      <trkpt lat="43.47645" lon="6.31086">
        <ele>155</ele>
        <time>2023-03-03T13:24:16Z</time>
      </trkpt>
      <trkpt lat="43.4765" lon="6.31077">
        <ele>156</ele>
        <time>2023-03-03T13:24:23Z</time>
      </trkpt>
      <trkpt lat="43.47652" lon="6.31072">
        <ele>158</ele>
        <time>2023-03-03T13:24:26Z</time>
      </trkpt>
      <trkpt lat="43.47655" lon="6.31068">
        <ele>159</ele>
        <time>2023-03-03T13:24:28Z</time>
      </trkpt>
      <trkpt lat="43.47658" lon="6.31059">
        <ele>162</ele>
        <time>2023-03-03T13:24:34Z</time>
      </trkpt>
      <trkpt lat="43.4766" lon="6.31054">
        <ele>162</ele>
        <time>2023-03-03T13:24:38Z</time>
      </trkpt>
      <trkpt lat="43.47665" lon="6.3104">
        <ele>165</ele>
        <time>2023-03-03T13:24:50Z</time>
      </trkpt>
      <trkpt lat="43.47666" lon="6.31035">
        <ele>164</ele>
        <time>2023-03-03T13:24:54Z</time>
      </trkpt>
      <trkpt lat="43.47667" lon="6.3103">
        <ele>163</ele>
        <time>2023-03-03T13:24:58Z</time>
      </trkpt>
      <trkpt lat="43.47669" lon="6.31025">
        <ele>163</ele>
        <time>2023-03-03T13:25:03Z</time>
      </trkpt>
      <trkpt lat="43.4767" lon="6.3102">
        <ele>163</ele>
        <time>2023-03-03T13:25:07Z</time>
      </trkpt>
      <trkpt lat="43.47673" lon="6.31016">
        <ele>162</ele>
        <time>2023-03-03T13:25:11Z</time>
      </trkpt>
      <trkpt lat="43.47677" lon="6.31015">
        <ele>162</ele>
        <time>2023-03-03T13:25:16Z</time>
      </trkpt>
      <trkpt lat="43.47686" lon="6.31005">
        <ele>164</ele>
        <time>2023-03-03T13:25:34Z</time>
      </trkpt>
      <trkpt lat="43.47687" lon="6.31">
        <ele>163</ele>
        <time>2023-03-03T13:25:38Z</time>
      </trkpt>
      <trkpt lat="43.47689" lon="6.30996">
        <ele>164</ele>
        <time>2023-03-03T13:25:42Z</time>
      </trkpt>
      <trkpt lat="43.47704" lon="6.30959">
        <ele>162</ele>
        <time>2023-03-03T13:26:14Z</time>
      </trkpt>
      <trkpt lat="43.47711" lon="6.30936">
        <ele>159</ele>
        <time>2023-03-03T13:26:34Z</time>
      </trkpt>
      <trkpt lat="43.47713" lon="6.30931">
        <ele>160</ele>
        <time>2023-03-03T13:26:38Z</time>
      </trkpt>
      <trkpt lat="43.47714" lon="6.30925">
        <ele>160</ele>
        <time>2023-03-03T13:26:42Z</time>
      </trkpt>
      <trkpt lat="43.47715" lon="6.3092">
        <ele>159</ele>
        <time>2023-03-03T13:26:46Z</time>
      </trkpt>
      <trkpt lat="43.47718" lon="6.3091">
        <ele>159</ele>
        <time>2023-03-03T13:26:54Z</time>
      </trkpt>
      <trkpt lat="43.47721" lon="6.309">
        <ele>158</ele>
        <time>2023-03-03T13:27:02Z</time>
      </trkpt>
      <trkpt lat="43.47723" lon="6.30894">
        <ele>157</ele>
        <time>2023-03-03T13:27:06Z</time>
      </trkpt>
      <trkpt lat="43.47726" lon="6.30884">
        <ele>156</ele>
        <time>2023-03-03T13:27:14Z</time>
      </trkpt>
      <trkpt lat="43.47729" lon="6.30874">
        <ele>157</ele>
        <time>2023-03-03T13:27:22Z</time>
      </trkpt>
      <trkpt lat="43.47731" lon="6.30869">
        <ele>156</ele>
        <time>2023-03-03T13:27:26Z</time>
      </trkpt>
      <trkpt lat="43.47735" lon="6.30866">
        <ele>157</ele>
        <time>2023-03-03T13:27:30Z</time>
      </trkpt>
      <trkpt lat="43.47739" lon="6.30865">
        <ele>157</ele>
        <time>2023-03-03T13:27:33Z</time>
      </trkpt>
      <trkpt lat="43.47743" lon="6.30866">
        <ele>155</ele>
        <time>2023-03-03T13:27:37Z</time>
      </trkpt>
      <trkpt lat="43.47751" lon="6.30867">
        <ele>155</ele>
        <time>2023-03-03T13:27:45Z</time>
      </trkpt>
      <trkpt lat="43.47754" lon="6.30868">
        <ele>155</ele>
        <time>2023-03-03T13:27:49Z</time>
      </trkpt>
      <trkpt lat="43.47757" lon="6.30871">
        <ele>155</ele>
        <time>2023-03-03T13:27:53Z</time>
      </trkpt>
      <trkpt lat="43.4776" lon="6.30874">
        <ele>158</ele>
        <time>2023-03-03T13:28:00Z</time>
      </trkpt>
      <trkpt lat="43.47764" lon="6.30877">
        <ele>157</ele>
        <time>2023-03-03T13:28:05Z</time>
      </trkpt>
      <trkpt lat="43.47767" lon="6.30878">
        <ele>157</ele>
        <time>2023-03-03T13:28:10Z</time>
      </trkpt>
      <trkpt lat="43.47771" lon="6.30876">
        <ele>160</ele>
        <time>2023-03-03T13:28:15Z</time>
      </trkpt>
      <trkpt lat="43.47777" lon="6.30881">
        <ele>160</ele>
        <time>2023-03-03T13:28:31Z</time>
      </trkpt>
      <trkpt lat="43.47792" lon="6.3088">
        <ele>159</ele>
        <time>2023-03-03T13:28:51Z</time>
      </trkpt>
      <trkpt lat="43.47805" lon="6.30871">
        <ele>160</ele>
        <time>2023-03-03T13:29:09Z</time>
      </trkpt>
      <trkpt lat="43.47809" lon="6.30869">
        <ele>161</ele>
        <time>2023-03-03T13:29:13Z</time>
      </trkpt>
      <trkpt lat="43.47813" lon="6.30868">
        <ele>162</ele>
        <time>2023-03-03T13:29:18Z</time>
      </trkpt>
      <trkpt lat="43.4782" lon="6.30868">
        <ele>160</ele>
        <time>2023-03-03T13:29:26Z</time>
      </trkpt>
      <trkpt lat="43.47824" lon="6.30867">
        <ele>158</ele>
        <time>2023-03-03T13:29:31Z</time>
      </trkpt>
      <trkpt lat="43.47828" lon="6.30867">
        <ele>158</ele>
        <time>2023-03-03T13:29:35Z</time>
      </trkpt>
      <trkpt lat="43.47832" lon="6.30867">
        <ele>157</ele>
        <time>2023-03-03T13:29:39Z</time>
      </trkpt>
      <trkpt lat="43.47847" lon="6.30869">
        <ele>154</ele>
        <time>2023-03-03T13:29:56Z</time>
      </trkpt>
      <trkpt lat="43.47851" lon="6.30866">
        <ele>154</ele>
        <time>2023-03-03T13:30:01Z</time>
      </trkpt>
      <trkpt lat="43.47853" lon="6.30861">
        <ele>153</ele>
        <time>2023-03-03T13:30:06Z</time>
      </trkpt>
      <trkpt lat="43.47859" lon="6.30847">
        <ele>153</ele>
        <time>2023-03-03T13:30:18Z</time>
      </trkpt>
      <trkpt lat="43.47861" lon="6.30831">
        <ele>155</ele>
        <time>2023-03-03T13:30:30Z</time>
      </trkpt>
      <trkpt lat="43.47864" lon="6.3082">
        <ele>158</ele>
        <time>2023-03-03T13:30:37Z</time>
      </trkpt>
      <trkpt lat="43.47866" lon="6.3081">
        <ele>157</ele>
        <time>2023-03-03T13:30:44Z</time>
      </trkpt>
      <trkpt lat="43.47869" lon="6.30805">
        <ele>156</ele>
        <time>2023-03-03T13:30:48Z</time>
      </trkpt>
      <trkpt lat="43.4787" lon="6.30801">
        <ele>156</ele>
        <time>2023-03-03T13:30:51Z</time>
      </trkpt>
      <trkpt lat="43.47873" lon="6.30796">
        <ele>157</ele>
        <time>2023-03-03T13:30:54Z</time>
      </trkpt>
      <trkpt lat="43.47875" lon="6.30791">
        <ele>158</ele>
        <time>2023-03-03T13:30:58Z</time>
      </trkpt>
      <trkpt lat="43.47879" lon="6.30788">
        <ele>161</ele>
        <time>2023-03-03T13:31:01Z</time>
      </trkpt>
      <trkpt lat="43.47882" lon="6.30784">
        <ele>162</ele>
        <time>2023-03-03T13:31:05Z</time>
      </trkpt>
      <trkpt lat="43.47885" lon="6.30785">
        <ele>164</ele>
        <time>2023-03-03T13:31:09Z</time>
      </trkpt>
      <trkpt lat="43.47885" lon="6.3079">
        <ele>163</ele>
        <time>2023-03-03T13:31:14Z</time>
      </trkpt>
      <trkpt lat="43.47885" lon="6.30786">
        <ele>163</ele>
        <time>2023-03-03T13:31:30Z</time>
      </trkpt>
      <trkpt lat="43.47887" lon="6.30782">
        <ele>165</ele>
        <time>2023-03-03T13:31:42Z</time>
      </trkpt>
      <trkpt lat="43.47886" lon="6.30778">
        <ele>165</ele>
        <time>2023-03-03T13:31:52Z</time>
      </trkpt>
      <trkpt lat="43.47887" lon="6.30772">
        <ele>166</ele>
        <time>2023-03-03T13:32:07Z</time>
      </trkpt>
      <trkpt lat="43.4789" lon="6.30762">
        <ele>168</ele>
        <time>2023-03-03T13:32:18Z</time>
      </trkpt>
      <trkpt lat="43.47892" lon="6.30757">
        <ele>169</ele>
        <time>2023-03-03T13:32:22Z</time>
      </trkpt>
      <trkpt lat="43.47893" lon="6.30753">
        <ele>169</ele>
        <time>2023-03-03T13:32:27Z</time>
      </trkpt>
      <trkpt lat="43.47894" lon="6.30753">
        <ele>167</ele>
        <time>2023-03-03T13:32:37Z</time>
      </trkpt>
      <trkpt lat="43.47895" lon="6.30748">
        <ele>165</ele>
        <time>2023-03-03T13:32:43Z</time>
      </trkpt>
      <trkpt lat="43.47897" lon="6.30744">
        <ele>165</ele>
        <time>2023-03-03T13:32:45Z</time>
      </trkpt>
      <trkpt lat="43.47896" lon="6.30738">
        <ele>166</ele>
        <time>2023-03-03T13:32:49Z</time>
      </trkpt>
      <trkpt lat="43.47897" lon="6.30722">
        <ele>169</ele>
        <time>2023-03-03T13:32:59Z</time>
      </trkpt>
      <trkpt lat="43.47896" lon="6.30717">
        <ele>171</ele>
        <time>2023-03-03T13:33:02Z</time>
      </trkpt>
      <trkpt lat="43.47897" lon="6.30712">
        <ele>170</ele>
        <time>2023-03-03T13:33:05Z</time>
      </trkpt>
      <trkpt lat="43.47899" lon="6.30707">
        <ele>171</ele>
        <time>2023-03-03T13:33:09Z</time>
      </trkpt>
      <trkpt lat="43.47901" lon="6.30701">
        <ele>172</ele>
        <time>2023-03-03T13:33:13Z</time>
      </trkpt>
      <trkpt lat="43.479" lon="6.30696">
        <ele>172</ele>
        <time>2023-03-03T13:33:16Z</time>
      </trkpt>
      <trkpt lat="43.47897" lon="6.30691">
        <ele>172</ele>
        <time>2023-03-03T13:33:20Z</time>
      </trkpt>
      <trkpt lat="43.4789" lon="6.30686">
        <ele>165</ele>
        <time>2023-03-03T13:33:25Z</time>
      </trkpt>
      <trkpt lat="43.47883" lon="6.30684">
        <ele>161</ele>
        <time>2023-03-03T13:33:33Z</time>
      </trkpt>
      <trkpt lat="43.47875" lon="6.3068">
        <ele>160</ele>
        <time>2023-03-03T13:33:41Z</time>
      </trkpt>
      <trkpt lat="43.47873" lon="6.30676">
        <ele>158</ele>
        <time>2023-03-03T13:33:45Z</time>
      </trkpt>
      <trkpt lat="43.47867" lon="6.30669">
        <ele>158</ele>
        <time>2023-03-03T13:33:53Z</time>
      </trkpt>
      <trkpt lat="43.47849" lon="6.30662">
        <ele>159</ele>
        <time>2023-03-03T13:34:14Z</time>
      </trkpt>
      <trkpt lat="43.47846" lon="6.30664">
        <ele>159</ele>
        <time>2023-03-03T13:34:18Z</time>
      </trkpt>
      <trkpt lat="43.47842" lon="6.30665">
        <ele>159</ele>
        <time>2023-03-03T13:34:22Z</time>
      </trkpt>
      <trkpt lat="43.47832" lon="6.30662">
        <ele>160</ele>
        <time>2023-03-03T13:34:34Z</time>
      </trkpt>
      <trkpt lat="43.47825" lon="6.30666">
        <ele>159</ele>
        <time>2023-03-03T13:34:44Z</time>
      </trkpt>
      <trkpt lat="43.47821" lon="6.30665">
        <ele>159</ele>
        <time>2023-03-03T13:34:49Z</time>
      </trkpt>
      <trkpt lat="43.47821" lon="6.30662">
        <ele>153</ele>
        <time>2023-03-03T13:41:08Z</time>
      </trkpt>
      <trkpt lat="43.4782" lon="6.30656">
        <ele>152</ele>
        <time>2023-03-03T13:41:12Z</time>
      </trkpt>
      <trkpt lat="43.47816" lon="6.30648">
        <ele>154</ele>
        <time>2023-03-03T13:41:20Z</time>
      </trkpt>
      <trkpt lat="43.47806" lon="6.30642">
        <ele>153</ele>
        <time>2023-03-03T13:41:33Z</time>
      </trkpt>
      <trkpt lat="43.47803" lon="6.3064">
        <ele>153</ele>
        <time>2023-03-03T13:41:37Z</time>
      </trkpt>
      <trkpt lat="43.47799" lon="6.30638">
        <ele>151</ele>
        <time>2023-03-03T13:41:42Z</time>
      </trkpt>
      <trkpt lat="43.47789" lon="6.30632">
        <ele>149</ele>
        <time>2023-03-03T13:41:56Z</time>
      </trkpt>
      <trkpt lat="43.47785" lon="6.30631">
        <ele>151</ele>
        <time>2023-03-03T13:42:01Z</time>
      </trkpt>
      <trkpt lat="43.47775" lon="6.30626">
        <ele>158</ele>
        <time>2023-03-03T13:42:13Z</time>
      </trkpt>
      <trkpt lat="43.47766" lon="6.30625">
        <ele>161</ele>
        <time>2023-03-03T13:42:25Z</time>
      </trkpt>
      <trkpt lat="43.47758" lon="6.30616">
        <ele>158</ele>
        <time>2023-03-03T13:42:42Z</time>
      </trkpt>
      <trkpt lat="43.47747" lon="6.30616">
        <ele>155</ele>
        <time>2023-03-03T13:42:52Z</time>
      </trkpt>
      <trkpt lat="43.47735" lon="6.3061">
        <ele>151</ele>
        <time>2023-03-03T13:43:04Z</time>
      </trkpt>
      <trkpt lat="43.47732" lon="6.30608">
        <ele>152</ele>
        <time>2023-03-03T13:43:08Z</time>
      </trkpt>
      <trkpt lat="43.47729" lon="6.30606">
        <ele>151</ele>
        <time>2023-03-03T13:43:11Z</time>
      </trkpt>
      <trkpt lat="43.47725" lon="6.30604">
        <ele>150</ele>
        <time>2023-03-03T13:43:14Z</time>
      </trkpt>
      <trkpt lat="43.47719" lon="6.306">
        <ele>149</ele>
        <time>2023-03-03T13:43:20Z</time>
      </trkpt>
      <trkpt lat="43.47716" lon="6.30598">
        <ele>151</ele>
        <time>2023-03-03T13:43:23Z</time>
      </trkpt>
      <trkpt lat="43.47713" lon="6.30596">
        <ele>153</ele>
        <time>2023-03-03T13:43:26Z</time>
      </trkpt>
      <trkpt lat="43.47707" lon="6.30592">
        <ele>156</ele>
        <time>2023-03-03T13:43:32Z</time>
      </trkpt>
      <trkpt lat="43.47703" lon="6.30589">
        <ele>153</ele>
        <time>2023-03-03T13:43:36Z</time>
      </trkpt>
      <trkpt lat="43.47697" lon="6.30584">
        <ele>149</ele>
        <time>2023-03-03T13:43:43Z</time>
      </trkpt>
      <trkpt lat="43.47693" lon="6.30582">
        <ele>149</ele>
        <time>2023-03-03T13:43:47Z</time>
      </trkpt>
      <trkpt lat="43.4769" lon="6.30579">
        <ele>151</ele>
        <time>2023-03-03T13:43:50Z</time>
      </trkpt>
      <trkpt lat="43.47681" lon="6.30572">
        <ele>155</ele>
        <time>2023-03-03T13:43:58Z</time>
      </trkpt>
      <trkpt lat="43.47673" lon="6.30565">
        <ele>154</ele>
        <time>2023-03-03T13:44:06Z</time>
      </trkpt>
      <trkpt lat="43.47649" lon="6.30545">
        <ele>157</ele>
        <time>2023-03-03T13:44:29Z</time>
      </trkpt>
      <trkpt lat="43.47639" lon="6.30544">
        <ele>159</ele>
        <time>2023-03-03T13:44:37Z</time>
      </trkpt>
      <trkpt lat="43.47631" lon="6.30541">
        <ele>157</ele>
        <time>2023-03-03T13:44:45Z</time>
      </trkpt>
      <trkpt lat="43.47605" lon="6.30528">
        <ele>154</ele>
        <time>2023-03-03T13:45:09Z</time>
      </trkpt>
      <trkpt lat="43.47596" lon="6.30526">
        <ele>152</ele>
        <time>2023-03-03T13:45:18Z</time>
      </trkpt>
      <trkpt lat="43.47587" lon="6.30529">
        <ele>150</ele>
        <time>2023-03-03T13:45:27Z</time>
      </trkpt>
      <trkpt lat="43.47585" lon="6.30534">
        <ele>149</ele>
        <time>2023-03-03T13:45:46Z</time>
      </trkpt>
      <trkpt lat="43.47574" lon="6.30529">
        <ele>147</ele>
        <time>2023-03-03T13:45:56Z</time>
      </trkpt>
      <trkpt lat="43.4757" lon="6.30529">
        <ele>147</ele>
        <time>2023-03-03T13:46:00Z</time>
      </trkpt>
      <trkpt lat="43.47566" lon="6.30528">
        <ele>147</ele>
        <time>2023-03-03T13:46:04Z</time>
      </trkpt>
      <trkpt lat="43.47558" lon="6.30526">
        <ele>148</ele>
        <time>2023-03-03T13:46:12Z</time>
      </trkpt>
      <trkpt lat="43.47555" lon="6.30523">
        <ele>148</ele>
        <time>2023-03-03T13:46:16Z</time>
      </trkpt>
      <trkpt lat="43.47553" lon="6.30527">
        <ele>145</ele>
        <time>2023-03-03T13:46:25Z</time>
      </trkpt>
      <trkpt lat="43.47549" lon="6.30527">
        <ele>142</ele>
        <time>2023-03-03T13:46:30Z</time>
      </trkpt>
      <trkpt lat="43.47545" lon="6.30525">
        <ele>145</ele>
        <time>2023-03-03T13:46:34Z</time>
      </trkpt>
      <trkpt lat="43.47538" lon="6.30523">
        <ele>142</ele>
        <time>2023-03-03T13:46:41Z</time>
      </trkpt>
      <trkpt lat="43.47528" lon="6.30523">
        <ele>140</ele>
        <time>2023-03-03T13:46:51Z</time>
      </trkpt>
      <trkpt lat="43.47519" lon="6.30521">
        <ele>139</ele>
        <time>2023-03-03T13:47:00Z</time>
      </trkpt>
      <trkpt lat="43.47518" lon="6.30514">
        <ele>136</ele>
        <time>2023-03-03T13:47:43Z</time>
      </trkpt>
      <trkpt lat="43.47509" lon="6.30515">
        <ele>134</ele>
        <time>2023-03-03T13:48:34Z</time>
      </trkpt>
      <trkpt lat="43.47499" lon="6.30516">
        <ele>134</ele>
        <time>2023-03-03T13:48:41Z</time>
      </trkpt>
      <trkpt lat="43.47464" lon="6.30507">
        <ele>133</ele>
        <time>2023-03-03T13:49:09Z</time>
      </trkpt>
      <trkpt lat="43.47455" lon="6.30502">
        <ele>131</ele>
        <time>2023-03-03T13:49:16Z</time>
      </trkpt>
      <trkpt lat="43.47437" lon="6.30495">
        <ele>133</ele>
        <time>2023-03-03T13:49:32Z</time>
      </trkpt>
      <trkpt lat="43.47419" lon="6.30486">
        <ele>135</ele>
        <time>2023-03-03T13:49:48Z</time>
      </trkpt>
      <trkpt lat="43.4741" lon="6.30481">
        <ele>138</ele>
        <time>2023-03-03T13:49:56Z</time>
      </trkpt>
      <trkpt lat="43.47366" lon="6.30459">
        <ele>139</ele>
        <time>2023-03-03T13:50:33Z</time>
      </trkpt>
      <trkpt lat="43.47357" lon="6.30454">
        <ele>140</ele>
        <time>2023-03-03T13:50:41Z</time>
      </trkpt>
      <trkpt lat="43.47349" lon="6.30448">
        <ele>138</ele>
        <time>2023-03-03T13:50:48Z</time>
      </trkpt>
      <trkpt lat="43.47333" lon="6.30435">
        <ele>137</ele>
        <time>2023-03-03T13:51:04Z</time>
      </trkpt>
      <trkpt lat="43.47307" lon="6.30421">
        <ele>139</ele>
        <time>2023-03-03T13:51:25Z</time>
      </trkpt>
      <trkpt lat="43.47298" lon="6.30415">
        <ele>138</ele>
        <time>2023-03-03T13:51:33Z</time>
      </trkpt>
      <trkpt lat="43.4728" lon="6.30408">
        <ele>137</ele>
        <time>2023-03-03T13:51:49Z</time>
      </trkpt>
      <trkpt lat="43.47263" lon="6.30401">
        <ele>136</ele>
        <time>2023-03-03T13:52:03Z</time>
      </trkpt>
      <trkpt lat="43.4723" lon="6.3038">
        <ele>124</ele>
        <time>2023-03-03T13:52:33Z</time>
      </trkpt>
      <trkpt lat="43.47212" lon="6.30372">
        <ele>125</ele>
        <time>2023-03-03T13:52:50Z</time>
      </trkpt>
      <trkpt lat="43.47206" lon="6.30367">
        <ele>127</ele>
        <time>2023-03-03T13:52:56Z</time>
      </trkpt>
      <trkpt lat="43.47202" lon="6.30365">
        <ele>127</ele>
        <time>2023-03-03T13:52:59Z</time>
      </trkpt>
      <trkpt lat="43.47194" lon="6.30365">
        <ele>126</ele>
        <time>2023-03-03T13:53:07Z</time>
      </trkpt>
      <trkpt lat="43.4719" lon="6.30365">
        <ele>124</ele>
        <time>2023-03-03T13:53:11Z</time>
      </trkpt>
      <trkpt lat="43.47186" lon="6.30366">
        <ele>125</ele>
        <time>2023-03-03T13:53:14Z</time>
      </trkpt>
      <trkpt lat="43.47182" lon="6.30366">
        <ele>125</ele>
        <time>2023-03-03T13:53:17Z</time>
      </trkpt>
      <trkpt lat="43.4718" lon="6.30363">
        <ele>126</ele>
        <time>2023-03-03T13:53:26Z</time>
      </trkpt>
      <trkpt lat="43.47171" lon="6.30355">
        <ele>120</ele>
        <time>2023-03-03T13:53:41Z</time>
      </trkpt>
      <trkpt lat="43.47164" lon="6.30351">
        <ele>119</ele>
        <time>2023-03-03T13:53:51Z</time>
      </trkpt>
      <trkpt lat="43.47161" lon="6.30349">
        <ele>118</ele>
        <time>2023-03-03T13:53:55Z</time>
      </trkpt>
      <trkpt lat="43.47153" lon="6.30347">
        <ele>117</ele>
        <time>2023-03-03T13:54:04Z</time>
      </trkpt>
      <trkpt lat="43.4715" lon="6.30345">
        <ele>118</ele>
        <time>2023-03-03T13:54:09Z</time>
      </trkpt>
      <trkpt lat="43.47146" lon="6.30343">
        <ele>119</ele>
        <time>2023-03-03T13:54:13Z</time>
      </trkpt>
      <trkpt lat="43.47131" lon="6.30342">
        <ele>117</ele>
        <time>2023-03-03T13:54:31Z</time>
      </trkpt>
      <trkpt lat="43.47128" lon="6.30344">
        <ele>115</ele>
        <time>2023-03-03T13:54:35Z</time>
      </trkpt>
      <trkpt lat="43.47127" lon="6.3035">
        <ele>111</ele>
        <time>2023-03-03T13:54:39Z</time>
      </trkpt>
      <trkpt lat="43.47128" lon="6.30355">
        <ele>106</ele>
        <time>2023-03-03T13:54:43Z</time>
      </trkpt>
      <trkpt lat="43.47129" lon="6.3036">
        <ele>105</ele>
        <time>2023-03-03T13:54:47Z</time>
      </trkpt>
      <trkpt lat="43.47131" lon="6.3037">
        <ele>103</ele>
        <time>2023-03-03T13:54:55Z</time>
      </trkpt>
      <trkpt lat="43.47129" lon="6.30381">
        <ele>104</ele>
        <time>2023-03-03T13:55:05Z</time>
      </trkpt>
      <trkpt lat="43.47129" lon="6.30387">
        <ele>103</ele>
        <time>2023-03-03T13:55:10Z</time>
      </trkpt>
      <trkpt lat="43.4713" lon="6.30397">
        <ele>101</ele>
        <time>2023-03-03T13:55:19Z</time>
      </trkpt>
      <trkpt lat="43.47134" lon="6.30407">
        <ele>100</ele>
        <time>2023-03-03T13:55:27Z</time>
      </trkpt>
      <trkpt lat="43.47134" lon="6.30412">
        <ele>99</ele>
        <time>2023-03-03T13:55:31Z</time>
      </trkpt>
      <trkpt lat="43.47134" lon="6.30417">
        <ele>98</ele>
        <time>2023-03-03T13:55:35Z</time>
      </trkpt>
      <trkpt lat="43.47133" lon="6.30427">
        <ele>97</ele>
        <time>2023-03-03T13:55:43Z</time>
      </trkpt>
      <trkpt lat="43.4713" lon="6.30438">
        <ele>97</ele>
        <time>2023-03-03T13:55:51Z</time>
      </trkpt>
      <trkpt lat="43.47126" lon="6.30441">
        <ele>96</ele>
        <time>2023-03-03T13:55:55Z</time>
      </trkpt>
      <trkpt lat="43.47119" lon="6.30441">
        <ele>101</ele>
        <time>2023-03-03T13:56:03Z</time>
      </trkpt>
      <trkpt lat="43.47115" lon="6.30439">
        <ele>103</ele>
        <time>2023-03-03T13:56:07Z</time>
      </trkpt>
      <trkpt lat="43.47111" lon="6.30439">
        <ele>106</ele>
        <time>2023-03-03T13:56:11Z</time>
      </trkpt>
      <trkpt lat="43.47108" lon="6.30436">
        <ele>106</ele>
        <time>2023-03-03T13:56:14Z</time>
      </trkpt>
      <trkpt lat="43.47104" lon="6.30437">
        <ele>106</ele>
        <time>2023-03-03T13:56:18Z</time>
      </trkpt>
      <trkpt lat="43.47095" lon="6.30441">
        <ele>104</ele>
        <time>2023-03-03T13:56:27Z</time>
      </trkpt>
      <trkpt lat="43.47093" lon="6.30446">
        <ele>103</ele>
        <time>2023-03-03T13:56:32Z</time>
      </trkpt>
      <trkpt lat="43.47091" lon="6.30451">
        <ele>101</ele>
        <time>2023-03-03T13:56:38Z</time>
      </trkpt>
      <trkpt lat="43.47089" lon="6.30456">
        <ele>103</ele>
        <time>2023-03-03T13:56:42Z</time>
      </trkpt>
      <trkpt lat="43.47086" lon="6.30453">
        <ele>104</ele>
        <time>2023-03-03T13:57:07Z</time>
      </trkpt>
      <trkpt lat="43.47083" lon="6.30458">
        <ele>95</ele>
        <time>2023-03-03T13:57:32Z</time>
      </trkpt>
      <trkpt lat="43.47065" lon="6.30494">
        <ele>97</ele>
        <time>2023-03-03T13:58:02Z</time>
      </trkpt>
      <trkpt lat="43.47063" lon="6.30499">
        <ele>99</ele>
        <time>2023-03-03T13:58:07Z</time>
      </trkpt>
      <trkpt lat="43.4706" lon="6.30508">
        <ele>100</ele>
        <time>2023-03-03T13:58:16Z</time>
      </trkpt>
      <trkpt lat="43.47056" lon="6.30532">
        <ele>96</ele>
        <time>2023-03-03T13:58:35Z</time>
      </trkpt>
      <trkpt lat="43.47054" lon="6.30537">
        <ele>94</ele>
        <time>2023-03-03T13:58:39Z</time>
      </trkpt>
      <trkpt lat="43.47051" lon="6.30541">
        <ele>92</ele>
        <time>2023-03-03T13:58:43Z</time>
      </trkpt>
      <trkpt lat="43.47035" lon="6.30545">
        <ele>89</ele>
        <time>2023-03-03T13:58:57Z</time>
      </trkpt>
      <trkpt lat="43.47031" lon="6.30545">
        <ele>89</ele>
        <time>2023-03-03T13:59:01Z</time>
      </trkpt>
      <trkpt lat="43.47028" lon="6.30541">
        <ele>90</ele>
        <time>2023-03-03T13:59:06Z</time>
      </trkpt>
      <trkpt lat="43.47029" lon="6.30546">
        <ele>92</ele>
        <time>2023-03-03T13:59:40Z</time>
      </trkpt>
      <trkpt lat="43.47029" lon="6.30551">
        <ele>92</ele>
        <time>2023-03-03T13:59:44Z</time>
      </trkpt>
      <trkpt lat="43.47028" lon="6.30557">
        <ele>90</ele>
        <time>2023-03-03T13:59:49Z</time>
      </trkpt>
      <trkpt lat="43.47024" lon="6.30577">
        <ele>88</ele>
        <time>2023-03-03T14:00:03Z</time>
      </trkpt>
      <trkpt lat="43.47021" lon="6.30582">
        <ele>88</ele>
        <time>2023-03-03T14:00:07Z</time>
      </trkpt>
      <trkpt lat="43.47016" lon="6.30585">
        <ele>87</ele>
        <time>2023-03-03T14:00:16Z</time>
      </trkpt>
      <trkpt lat="43.47013" lon="6.30589">
        <ele>86</ele>
        <time>2023-03-03T14:00:20Z</time>
      </trkpt>
      <trkpt lat="43.47013" lon="6.30595">
        <ele>87</ele>
        <time>2023-03-03T14:00:24Z</time>
      </trkpt>
      <trkpt lat="43.47012" lon="6.30606">
        <ele>85</ele>
        <time>2023-03-03T14:00:32Z</time>
      </trkpt>
      <trkpt lat="43.4701" lon="6.30618">
        <ele>81</ele>
        <time>2023-03-03T14:00:40Z</time>
      </trkpt>
      <trkpt lat="43.47007" lon="6.30628">
        <ele>81</ele>
        <time>2023-03-03T14:00:48Z</time>
      </trkpt>
      <trkpt lat="43.47004" lon="6.30633">
        <ele>80</ele>
        <time>2023-03-03T14:00:53Z</time>
      </trkpt>
      <trkpt lat="43.46998" lon="6.30644">
        <ele>74</ele>
        <time>2023-03-03T14:01:05Z</time>
      </trkpt>
      <trkpt lat="43.46978" lon="6.3068">
        <ele>70</ele>
        <time>2023-03-03T14:01:38Z</time>
      </trkpt>
      <trkpt lat="43.46976" lon="6.30686">
        <ele>69</ele>
        <time>2023-03-03T14:01:43Z</time>
      </trkpt>
      <trkpt lat="43.46974" lon="6.30691">
        <ele>68</ele>
        <time>2023-03-03T14:01:47Z</time>
      </trkpt>
      <trkpt lat="43.46968" lon="6.30689">
        <ele>67</ele>
        <time>2023-03-03T14:01:51Z</time>
      </trkpt>
      <trkpt lat="43.46964" lon="6.30686">
        <ele>71</ele>
        <time>2023-03-03T14:01:56Z</time>
      </trkpt>
      <trkpt lat="43.46962" lon="6.30681">
        <ele>78</ele>
        <time>2023-03-03T14:02:14Z</time>
      </trkpt>
      <trkpt lat="43.46956" lon="6.30694">
        <ele>81</ele>
        <time>2023-03-03T14:02:23Z</time>
      </trkpt>
      <trkpt lat="43.46956" lon="6.30702">
        <ele>85</ele>
        <time>2023-03-03T14:02:27Z</time>
      </trkpt>
      <trkpt lat="43.46948" lon="6.30721">
        <ele>87</ele>
        <time>2023-03-03T14:02:41Z</time>
      </trkpt>
      <trkpt lat="43.46946" lon="6.30727">
        <ele>86</ele>
        <time>2023-03-03T14:02:47Z</time>
      </trkpt>
      <trkpt lat="43.46942" lon="6.30732">
        <ele>85</ele>
        <time>2023-03-03T14:02:52Z</time>
      </trkpt>
      <trkpt lat="43.46937" lon="6.30743">
        <ele>84</ele>
        <time>2023-03-03T14:03:00Z</time>
      </trkpt>
      <trkpt lat="43.46934" lon="6.30748">
        <ele>85</ele>
        <time>2023-03-03T14:03:03Z</time>
      </trkpt>
      <trkpt lat="43.46932" lon="6.30753">
        <ele>87</ele>
        <time>2023-03-03T14:03:07Z</time>
      </trkpt>
      <trkpt lat="43.46922" lon="6.30776">
        <ele>87</ele>
        <time>2023-03-03T14:03:25Z</time>
      </trkpt>
      <trkpt lat="43.46911" lon="6.30799">
        <ele>85</ele>
        <time>2023-03-03T14:03:43Z</time>
      </trkpt>
      <trkpt lat="43.46905" lon="6.30809">
        <ele>89</ele>
        <time>2023-03-03T14:03:51Z</time>
      </trkpt>
      <trkpt lat="43.46901" lon="6.3082">
        <ele>91</ele>
        <time>2023-03-03T14:04:00Z</time>
      </trkpt>
      <trkpt lat="43.46903" lon="6.30871">
        <ele>93</ele>
        <time>2023-03-03T14:04:32Z</time>
      </trkpt>
      <trkpt lat="43.46905" lon="6.30887">
        <ele>96</ele>
        <time>2023-03-03T14:04:43Z</time>
      </trkpt>
      <trkpt lat="43.46909" lon="6.30897">
        <ele>95</ele>
        <time>2023-03-03T14:04:51Z</time>
      </trkpt>
      <trkpt lat="43.46911" lon="6.30903">
        <ele>96</ele>
        <time>2023-03-03T14:04:55Z</time>
      </trkpt>
      <trkpt lat="43.46916" lon="6.30918">
        <ele>96</ele>
        <time>2023-03-03T14:05:07Z</time>
      </trkpt>
      <trkpt lat="43.46919" lon="6.30929">
        <ele>92</ele>
        <time>2023-03-03T14:05:15Z</time>
      </trkpt>
      <trkpt lat="43.4692" lon="6.30935">
        <ele>92</ele>
        <time>2023-03-03T14:05:19Z</time>
      </trkpt>
      <trkpt lat="43.46914" lon="6.30956">
        <ele>97</ele>
        <time>2023-03-03T14:05:31Z</time>
      </trkpt>
      <trkpt lat="43.46901" lon="6.30976">
        <ele>96</ele>
        <time>2023-03-03T14:05:49Z</time>
      </trkpt>
      <trkpt lat="43.46892" lon="6.31004">
        <ele>99</ele>
        <time>2023-03-03T14:06:07Z</time>
      </trkpt>
      <trkpt lat="43.4689" lon="6.31008">
        <ele>100</ele>
        <time>2023-03-03T14:06:10Z</time>
      </trkpt>
      <trkpt lat="43.46886" lon="6.31018">
        <ele>101</ele>
        <time>2023-03-03T14:06:17Z</time>
      </trkpt>
      <trkpt lat="43.46881" lon="6.31027">
        <ele>99</ele>
        <time>2023-03-03T14:06:25Z</time>
      </trkpt>
      <trkpt lat="43.46878" lon="6.31031">
        <ele>97</ele>
        <time>2023-03-03T14:06:29Z</time>
      </trkpt>
      <trkpt lat="43.46874" lon="6.31031">
        <ele>97</ele>
        <time>2023-03-03T14:06:32Z</time>
      </trkpt>
      <trkpt lat="43.46864" lon="6.3104">
        <ele>95</ele>
        <time>2023-03-03T14:06:41Z</time>
      </trkpt>
      <trkpt lat="43.46844" lon="6.3108">
        <ele>91</ele>
        <time>2023-03-03T14:07:13Z</time>
      </trkpt>
      <trkpt lat="43.46826" lon="6.31105">
        <ele>96</ele>
        <time>2023-03-03T14:07:34Z</time>
      </trkpt>
      <trkpt lat="43.46811" lon="6.31121">
        <ele>99</ele>
        <time>2023-03-03T14:07:49Z</time>
      </trkpt>
      <trkpt lat="43.468" lon="6.31127">
        <ele>97</ele>
        <time>2023-03-03T14:07:59Z</time>
      </trkpt>
      <trkpt lat="43.46792" lon="6.31128">
        <ele>97</ele>
        <time>2023-03-03T14:08:05Z</time>
      </trkpt>
      <trkpt lat="43.46781" lon="6.31132">
        <ele>99</ele>
        <time>2023-03-03T14:08:14Z</time>
      </trkpt>
      <trkpt lat="43.46778" lon="6.31134">
        <ele>98</ele>
        <time>2023-03-03T14:08:17Z</time>
      </trkpt>
      <trkpt lat="43.46772" lon="6.31141">
        <ele>99</ele>
        <time>2023-03-03T14:08:23Z</time>
      </trkpt>
      <trkpt lat="43.46763" lon="6.31158">
        <ele>99</ele>
        <time>2023-03-03T14:08:36Z</time>
      </trkpt>
      <trkpt lat="43.46753" lon="6.31177">
        <ele>97</ele>
        <time>2023-03-03T14:08:52Z</time>
      </trkpt>
      <trkpt lat="43.46752" lon="6.31183">
        <ele>96</ele>
        <time>2023-03-03T14:08:56Z</time>
      </trkpt>
      <trkpt lat="43.46746" lon="6.31196">
        <ele>95</ele>
        <time>2023-03-03T14:09:07Z</time>
      </trkpt>
      <trkpt lat="43.46743" lon="6.312">
        <ele>95</ele>
        <time>2023-03-03T14:09:11Z</time>
      </trkpt>
      <trkpt lat="43.46733" lon="6.31215">
        <ele>96</ele>
        <time>2023-03-03T14:09:23Z</time>
      </trkpt>
      <trkpt lat="43.46728" lon="6.31222">
        <ele>94</ele>
        <time>2023-03-03T14:09:30Z</time>
      </trkpt>
      <trkpt lat="43.46725" lon="6.31226">
        <ele>92</ele>
        <time>2023-03-03T14:09:35Z</time>
      </trkpt>
      <trkpt lat="43.46722" lon="6.3123">
        <ele>92</ele>
        <time>2023-03-03T14:09:38Z</time>
      </trkpt>
      <trkpt lat="43.4672" lon="6.31234">
        <ele>92</ele>
        <time>2023-03-03T14:09:42Z</time>
      </trkpt>
      <trkpt lat="43.46715" lon="6.31249">
        <ele>93</ele>
        <time>2023-03-03T14:09:53Z</time>
      </trkpt>
      <trkpt lat="43.46713" lon="6.31254">
        <ele>94</ele>
        <time>2023-03-03T14:09:57Z</time>
      </trkpt>
      <trkpt lat="43.46709" lon="6.31264">
        <ele>97</ele>
        <time>2023-03-03T14:10:05Z</time>
      </trkpt>
      <trkpt lat="43.46704" lon="6.31277">
        <ele>99</ele>
        <time>2023-03-03T14:10:37Z</time>
      </trkpt>
      <trkpt lat="43.46703" lon="6.31282">
        <ele>99</ele>
        <time>2023-03-03T14:10:41Z</time>
      </trkpt>
      <trkpt lat="43.467" lon="6.31286">
        <ele>100</ele>
        <time>2023-03-03T14:10:45Z</time>
      </trkpt>
      <trkpt lat="43.46693" lon="6.31286">
        <ele>102</ele>
        <time>2023-03-03T14:10:53Z</time>
      </trkpt>
      <trkpt lat="43.46689" lon="6.31286">
        <ele>100</ele>
        <time>2023-03-03T14:10:58Z</time>
      </trkpt>
      <trkpt lat="43.46686" lon="6.31289">
        <ele>99</ele>
        <time>2023-03-03T14:11:03Z</time>
      </trkpt>
      <trkpt lat="43.46687" lon="6.31294">
        <ele>100</ele>
        <time>2023-03-03T14:11:07Z</time>
      </trkpt>
      <trkpt lat="43.4669" lon="6.31291">
        <ele>100</ele>
        <time>2023-03-03T14:11:36Z</time>
      </trkpt>
      <trkpt lat="43.46697" lon="6.31285">
        <ele>98</ele>
        <time>2023-03-03T14:11:47Z</time>
      </trkpt>
      <trkpt lat="43.46692" lon="6.31275">
        <ele>100</ele>
        <time>2023-03-03T14:12:06Z</time>
      </trkpt>
      <trkpt lat="43.4669" lon="6.3127">
        <ele>100</ele>
        <time>2023-03-03T14:12:11Z</time>
      </trkpt>
      <trkpt lat="43.46692" lon="6.31269">
        <ele>96</ele>
        <time>2023-03-03T14:12:28Z</time>
      </trkpt>
      <trkpt lat="43.46691" lon="6.31275">
        <ele>94</ele>
        <time>2023-03-03T14:12:33Z</time>
      </trkpt>
      <trkpt lat="43.46686" lon="6.31288">
        <ele>93</ele>
        <time>2023-03-03T14:12:45Z</time>
      </trkpt>
      <trkpt lat="43.46679" lon="6.31295">
        <ele>94</ele>
        <time>2023-03-03T14:12:53Z</time>
      </trkpt>
      <trkpt lat="43.46676" lon="6.31298">
        <ele>94</ele>
        <time>2023-03-03T14:12:56Z</time>
      </trkpt>
      <trkpt lat="43.46658" lon="6.31332">
        <ele>92</ele>
        <time>2023-03-03T14:13:27Z</time>
      </trkpt>
      <trkpt lat="43.46647" lon="6.31356">
        <ele>92</ele>
        <time>2023-03-03T14:13:38Z</time>
      </trkpt>
      <trkpt lat="43.46626" lon="6.31396">
        <ele>97</ele>
        <time>2023-03-03T14:14:10Z</time>
      </trkpt>
      <trkpt lat="43.46616" lon="6.31419">
        <ele>98</ele>
        <time>2023-03-03T14:14:28Z</time>
      </trkpt>
      <trkpt lat="43.46614" lon="6.31424">
        <ele>97</ele>
        <time>2023-03-03T14:14:32Z</time>
      </trkpt>
      <trkpt lat="43.46613" lon="6.31429">
        <ele>97</ele>
        <time>2023-03-03T14:14:35Z</time>
      </trkpt>
      <trkpt lat="43.466" lon="6.31456">
        <ele>92</ele>
        <time>2023-03-03T14:14:59Z</time>
      </trkpt>
      <trkpt lat="43.46596" lon="6.31464">
        <ele>90</ele>
        <time>2023-03-03T14:15:06Z</time>
      </trkpt>
      <trkpt lat="43.46585" lon="6.31487">
        <ele>88</ele>
        <time>2023-03-03T14:15:24Z</time>
      </trkpt>
      <trkpt lat="43.46583" lon="6.31492">
        <ele>88</ele>
        <time>2023-03-03T14:15:28Z</time>
      </trkpt>
      <trkpt lat="43.46579" lon="6.31501">
        <ele>88</ele>
        <time>2023-03-03T14:15:35Z</time>
      </trkpt>
      <trkpt lat="43.46574" lon="6.31511">
        <ele>88</ele>
        <time>2023-03-03T14:15:43Z</time>
      </trkpt>
      <trkpt lat="43.46571" lon="6.31513">
        <ele>88</ele>
        <time>2023-03-03T14:15:47Z</time>
      </trkpt>
      <trkpt lat="43.46567" lon="6.31516">
        <ele>87</ele>
        <time>2023-03-03T14:15:49Z</time>
      </trkpt>
      <trkpt lat="43.4656" lon="6.31533">
        <ele>88</ele>
        <time>2023-03-03T14:16:01Z</time>
      </trkpt>
      <trkpt lat="43.46556" lon="6.31543">
        <ele>87</ele>
        <time>2023-03-03T14:16:08Z</time>
      </trkpt>
      <trkpt lat="43.46554" lon="6.31547">
        <ele>88</ele>
        <time>2023-03-03T14:16:11Z</time>
      </trkpt>
      <trkpt lat="43.46542" lon="6.3157">
        <ele>88</ele>
        <time>2023-03-03T14:16:27Z</time>
      </trkpt>
      <trkpt lat="43.46533" lon="6.31582">
        <ele>89</ele>
        <time>2023-03-03T14:16:36Z</time>
      </trkpt>
      <trkpt lat="43.4653" lon="6.31584">
        <ele>90</ele>
        <time>2023-03-03T14:16:40Z</time>
      </trkpt>
      <trkpt lat="43.46527" lon="6.31587">
        <ele>92</ele>
        <time>2023-03-03T14:16:43Z</time>
      </trkpt>
      <trkpt lat="43.46524" lon="6.3159">
        <ele>93</ele>
        <time>2023-03-03T14:16:46Z</time>
      </trkpt>
      <trkpt lat="43.46516" lon="6.31593">
        <ele>93</ele>
        <time>2023-03-03T14:16:53Z</time>
      </trkpt>
      <trkpt lat="43.46513" lon="6.31595">
        <ele>92</ele>
        <time>2023-03-03T14:16:57Z</time>
      </trkpt>
      <trkpt lat="43.46508" lon="6.31594">
        <ele>92</ele>
        <time>2023-03-03T14:17:01Z</time>
      </trkpt>
      <trkpt lat="43.46504" lon="6.31598">
        <ele>93</ele>
        <time>2023-03-03T14:17:05Z</time>
      </trkpt>
      <trkpt lat="43.465" lon="6.316">
        <ele>94</ele>
        <time>2023-03-03T14:17:09Z</time>
      </trkpt>
      <trkpt lat="43.46497" lon="6.31596">
        <ele>92</ele>
        <time>2023-03-03T14:17:14Z</time>
      </trkpt>
      <trkpt lat="43.46494" lon="6.31601">
        <ele>97</ele>
        <time>2023-03-03T14:17:42Z</time>
      </trkpt>
      <trkpt lat="43.46486" lon="6.31607">
        <ele>105</ele>
        <time>2023-03-03T14:18:20Z</time>
      </trkpt>
      <trkpt lat="43.46481" lon="6.3162">
        <ele>105</ele>
        <time>2023-03-03T14:18:27Z</time>
      </trkpt>
      <trkpt lat="43.46476" lon="6.3163">
        <ele>111</ele>
        <time>2023-03-03T14:18:31Z</time>
      </trkpt>
      <trkpt lat="43.46473" lon="6.31645">
        <ele>119</ele>
        <time>2023-03-03T14:18:39Z</time>
      </trkpt>
      <trkpt lat="43.4647" lon="6.31651">
        <ele>122</ele>
        <time>2023-03-03T14:18:42Z</time>
      </trkpt>
      <trkpt lat="43.46473" lon="6.31652">
        <ele>122</ele>
        <time>2023-03-03T14:18:49Z</time>
      </trkpt>
      <trkpt lat="43.46475" lon="6.31648">
        <ele>115</ele>
        <time>2023-03-03T14:19:05Z</time>
      </trkpt>
      <trkpt lat="43.4648" lon="6.31644">
        <ele>112</ele>
        <time>2023-03-03T14:19:10Z</time>
      </trkpt>
      <trkpt lat="43.46477" lon="6.3164">
        <ele>111</ele>
        <time>2023-03-03T14:19:13Z</time>
      </trkpt>
      <trkpt lat="43.46476" lon="6.31641">
        <ele>109</ele>
        <time>2023-03-03T14:20:09Z</time>
      </trkpt>
      <trkpt lat="43.46476" lon="6.31651">
        <ele>110</ele>
        <time>2023-03-03T14:20:20Z</time>
      </trkpt>
      <trkpt lat="43.4648" lon="6.31672">
        <ele>101</ele>
        <time>2023-03-03T14:20:37Z</time>
      </trkpt>
      <trkpt lat="43.4648" lon="6.31677">
        <ele>100</ele>
        <time>2023-03-03T14:20:41Z</time>
      </trkpt>
      <trkpt lat="43.46477" lon="6.31698">
        <ele>95</ele>
        <time>2023-03-03T14:20:59Z</time>
      </trkpt>
      <trkpt lat="43.46477" lon="6.31708">
        <ele>92</ele>
        <time>2023-03-03T14:21:07Z</time>
      </trkpt>
      <trkpt lat="43.46483" lon="6.31721">
        <ele>89</ele>
        <time>2023-03-03T14:21:19Z</time>
      </trkpt>
      <trkpt lat="43.46498" lon="6.31744">
        <ele>84</ele>
        <time>2023-03-03T14:21:43Z</time>
      </trkpt>
      <trkpt lat="43.46505" lon="6.31751">
        <ele>81</ele>
        <time>2023-03-03T14:21:51Z</time>
      </trkpt>
      <trkpt lat="43.46507" lon="6.31755">
        <ele>81</ele>
        <time>2023-03-03T14:21:55Z</time>
      </trkpt>
      <trkpt lat="43.46508" lon="6.3176">
        <ele>81</ele>
        <time>2023-03-03T14:22:02Z</time>
      </trkpt>
      <trkpt lat="43.46514" lon="6.31769">
        <ele>80</ele>
        <time>2023-03-03T14:22:11Z</time>
      </trkpt>
      <trkpt lat="43.46516" lon="6.31774">
        <ele>81</ele>
        <time>2023-03-03T14:22:15Z</time>
      </trkpt>
      <trkpt lat="43.46516" lon="6.3178">
        <ele>84</ele>
        <time>2023-03-03T14:22:21Z</time>
      </trkpt>
      <trkpt lat="43.46518" lon="6.31785">
        <ele>84</ele>
        <time>2023-03-03T14:22:29Z</time>
      </trkpt>
      <trkpt lat="43.46536" lon="6.3182">
        <ele>85</ele>
        <time>2023-03-03T14:23:02Z</time>
      </trkpt>
      <trkpt lat="43.46538" lon="6.31825">
        <ele>84</ele>
        <time>2023-03-03T14:23:06Z</time>
      </trkpt>
      <trkpt lat="43.46539" lon="6.31832">
        <ele>85</ele>
        <time>2023-03-03T14:23:09Z</time>
      </trkpt>
      <trkpt lat="43.46543" lon="6.31847">
        <ele>87</ele>
        <time>2023-03-03T14:23:21Z</time>
      </trkpt>
      <trkpt lat="43.46544" lon="6.31854">
        <ele>89</ele>
        <time>2023-03-03T14:23:25Z</time>
      </trkpt>
      <trkpt lat="43.46545" lon="6.31861">
        <ele>91</ele>
        <time>2023-03-03T14:23:29Z</time>
      </trkpt>
      <trkpt lat="43.46547" lon="6.31866">
        <ele>91</ele>
        <time>2023-03-03T14:23:34Z</time>
      </trkpt>
      <trkpt lat="43.46548" lon="6.31873">
        <ele>92</ele>
        <time>2023-03-03T14:23:39Z</time>
      </trkpt>
      <trkpt lat="43.46549" lon="6.31879">
        <ele>88</ele>
        <time>2023-03-03T14:23:50Z</time>
      </trkpt>
      <trkpt lat="43.4655" lon="6.31901">
        <ele>90</ele>
        <time>2023-03-03T14:24:04Z</time>
      </trkpt>
      <trkpt lat="43.4655" lon="6.31914">
        <ele>92</ele>
        <time>2023-03-03T14:24:12Z</time>
      </trkpt>
      <trkpt lat="43.46552" lon="6.31927">
        <ele>93</ele>
        <time>2023-03-03T14:24:21Z</time>
      </trkpt>
      <trkpt lat="43.46555" lon="6.31966">
        <ele>92</ele>
        <time>2023-03-03T14:24:47Z</time>
      </trkpt>
      <trkpt lat="43.46554" lon="6.3198">
        <ele>94</ele>
        <time>2023-03-03T14:24:55Z</time>
      </trkpt>
      <trkpt lat="43.46555" lon="6.31992">
        <ele>90</ele>
        <time>2023-03-03T14:25:02Z</time>
      </trkpt>
      <trkpt lat="43.46555" lon="6.32018">
        <ele>91</ele>
        <time>2023-03-03T14:25:18Z</time>
      </trkpt>
      <trkpt lat="43.46552" lon="6.32031">
        <ele>93</ele>
        <time>2023-03-03T14:25:26Z</time>
      </trkpt>
      <trkpt lat="43.46549" lon="6.32043">
        <ele>96</ele>
        <time>2023-03-03T14:25:35Z</time>
      </trkpt>
      <trkpt lat="43.4654" lon="6.32094">
        <ele>98</ele>
        <time>2023-03-03T14:26:07Z</time>
      </trkpt>
      <trkpt lat="43.46538" lon="6.321">
        <ele>92</ele>
        <time>2023-03-03T14:32:29Z</time>
      </trkpt>
      <trkpt lat="43.46535" lon="6.32105">
        <ele>92</ele>
        <time>2023-03-03T14:34:29Z</time>
      </trkpt>
      <trkpt lat="43.46533" lon="6.32121">
        <ele>93</ele>
        <time>2023-03-03T14:34:40Z</time>
      </trkpt>
      <trkpt lat="43.46534" lon="6.32126">
        <ele>92</ele>
        <time>2023-03-03T14:34:44Z</time>
      </trkpt>
      <trkpt lat="43.46536" lon="6.3213">
        <ele>92</ele>
        <time>2023-03-03T14:34:48Z</time>
      </trkpt>
      <trkpt lat="43.46537" lon="6.32151">
        <ele>94</ele>
        <time>2023-03-03T14:35:05Z</time>
      </trkpt>
      <trkpt lat="43.46536" lon="6.32158">
        <ele>95</ele>
        <time>2023-03-03T14:35:09Z</time>
      </trkpt>
      <trkpt lat="43.46536" lon="6.32184">
        <ele>100</ele>
        <time>2023-03-03T14:35:22Z</time>
      </trkpt>
      <trkpt lat="43.46531" lon="6.32214">
        <ele>100</ele>
        <time>2023-03-03T14:35:47Z</time>
      </trkpt>
      <trkpt lat="43.4653" lon="6.32219">
        <ele>100</ele>
        <time>2023-03-03T14:35:52Z</time>
      </trkpt>
      <trkpt lat="43.4653" lon="6.32224">
        <ele>99</ele>
        <time>2023-03-03T14:35:56Z</time>
      </trkpt>
      <trkpt lat="43.46534" lon="6.32252">
        <ele>96</ele>
        <time>2023-03-03T14:36:19Z</time>
      </trkpt>
      <trkpt lat="43.46533" lon="6.32257">
        <ele>95</ele>
        <time>2023-03-03T14:36:23Z</time>
      </trkpt>
      <trkpt lat="43.46533" lon="6.32262">
        <ele>94</ele>
        <time>2023-03-03T14:36:27Z</time>
      </trkpt>
      <trkpt lat="43.46532" lon="6.32267">
        <ele>94</ele>
        <time>2023-03-03T14:36:30Z</time>
      </trkpt>
      <trkpt lat="43.46528" lon="6.32309">
        <ele>95</ele>
        <time>2023-03-03T14:37:02Z</time>
      </trkpt>
      <trkpt lat="43.46521" lon="6.32335">
        <ele>95</ele>
        <time>2023-03-03T14:37:21Z</time>
      </trkpt>
      <trkpt lat="43.46517" lon="6.32344">
        <ele>96</ele>
        <time>2023-03-03T14:37:27Z</time>
      </trkpt>
      <trkpt lat="43.46515" lon="6.32349">
        <ele>96</ele>
        <time>2023-03-03T14:37:31Z</time>
      </trkpt>
      <trkpt lat="43.46512" lon="6.32353">
        <ele>96</ele>
        <time>2023-03-03T14:37:35Z</time>
      </trkpt>
      <trkpt lat="43.46504" lon="6.32378">
        <ele>98</ele>
        <time>2023-03-03T14:37:52Z</time>
      </trkpt>
      <trkpt lat="43.46498" lon="6.32421">
        <ele>96</ele>
        <time>2023-03-03T14:38:24Z</time>
      </trkpt>
      <trkpt lat="43.46498" lon="6.32433">
        <ele>93</ele>
        <time>2023-03-03T14:38:32Z</time>
      </trkpt>
      <trkpt lat="43.46496" lon="6.32459">
        <ele>92</ele>
        <time>2023-03-03T14:39:04Z</time>
      </trkpt>
      <trkpt lat="43.46494" lon="6.3247">
        <ele>93</ele>
        <time>2023-03-03T14:39:13Z</time>
      </trkpt>
      <trkpt lat="43.46493" lon="6.32475">
        <ele>93</ele>
        <time>2023-03-03T14:39:17Z</time>
      </trkpt>
      <trkpt lat="43.46493" lon="6.32479">
        <ele>92</ele>
        <time>2023-03-03T14:39:21Z</time>
      </trkpt>
      <trkpt lat="43.46491" lon="6.32484">
        <ele>92</ele>
        <time>2023-03-03T14:39:25Z</time>
      </trkpt>
      <trkpt lat="43.46486" lon="6.32499">
        <ele>94</ele>
        <time>2023-03-03T14:39:36Z</time>
      </trkpt>
      <trkpt lat="43.46484" lon="6.32503">
        <ele>95</ele>
        <time>2023-03-03T14:39:39Z</time>
      </trkpt>
      <trkpt lat="43.46479" lon="6.3251">
        <ele>98</ele>
        <time>2023-03-03T14:39:49Z</time>
      </trkpt>
      <trkpt lat="43.46476" lon="6.32514">
        <ele>99</ele>
        <time>2023-03-03T14:39:53Z</time>
      </trkpt>
      <trkpt lat="43.46476" lon="6.3252">
        <ele>100</ele>
        <time>2023-03-03T14:39:57Z</time>
      </trkpt>
      <trkpt lat="43.46475" lon="6.32525">
        <ele>101</ele>
        <time>2023-03-03T14:40:01Z</time>
      </trkpt>
      <trkpt lat="43.46476" lon="6.32531">
        <ele>99</ele>
        <time>2023-03-03T14:40:05Z</time>
      </trkpt>
      <trkpt lat="43.46487" lon="6.3254">
        <ele>99</ele>
        <time>2023-03-03T14:40:15Z</time>
      </trkpt>
      <trkpt lat="43.4649" lon="6.32543">
        <ele>101</ele>
        <time>2023-03-03T14:40:18Z</time>
      </trkpt>
      <trkpt lat="43.46507" lon="6.32546">
        <ele>99</ele>
        <time>2023-03-03T14:40:39Z</time>
      </trkpt>
      <trkpt lat="43.46511" lon="6.32546">
        <ele>99</ele>
        <time>2023-03-03T14:40:44Z</time>
      </trkpt>
      <trkpt lat="43.46526" lon="6.32552">
        <ele>101</ele>
        <time>2023-03-03T14:41:00Z</time>
      </trkpt>
      <trkpt lat="43.46555" lon="6.32553">
        <ele>105</ele>
        <time>2023-03-03T14:41:22Z</time>
      </trkpt>
      <trkpt lat="43.46558" lon="6.32552">
        <ele>105</ele>
        <time>2023-03-03T14:41:27Z</time>
      </trkpt>
      <trkpt lat="43.46561" lon="6.32549">
        <ele>104</ele>
        <time>2023-03-03T14:41:33Z</time>
      </trkpt>
      <trkpt lat="43.46565" lon="6.32546">
        <ele>102</ele>
        <time>2023-03-03T14:41:37Z</time>
      </trkpt>
      <trkpt lat="43.46567" lon="6.32542">
        <ele>100</ele>
        <time>2023-03-03T14:41:40Z</time>
      </trkpt>
      <trkpt lat="43.46574" lon="6.32538">
        <ele>97</ele>
        <time>2023-03-03T14:41:56Z</time>
      </trkpt>
      <trkpt lat="43.46577" lon="6.32537">
        <ele>100</ele>
        <time>2023-03-03T14:42:02Z</time>
      </trkpt>
      <trkpt lat="43.46581" lon="6.32534">
        <ele>101</ele>
        <time>2023-03-03T14:42:09Z</time>
      </trkpt>
      <trkpt lat="43.46586" lon="6.32528">
        <ele>103</ele>
        <time>2023-03-03T14:42:19Z</time>
      </trkpt>
      <trkpt lat="43.46589" lon="6.32525">
        <ele>104</ele>
        <time>2023-03-03T14:42:25Z</time>
      </trkpt>
      <trkpt lat="43.46591" lon="6.3252">
        <ele>105</ele>
        <time>2023-03-03T14:42:30Z</time>
      </trkpt>
      <trkpt lat="43.46598" lon="6.32512">
        <ele>106</ele>
        <time>2023-03-03T14:42:42Z</time>
      </trkpt>
      <trkpt lat="43.46624" lon="6.32505">
        <ele>105</ele>
        <time>2023-03-03T14:43:12Z</time>
      </trkpt>
      <trkpt lat="43.46639" lon="6.32502">
        <ele>102</ele>
        <time>2023-03-03T14:43:29Z</time>
      </trkpt>
      <trkpt lat="43.46642" lon="6.32501">
        <ele>102</ele>
        <time>2023-03-03T14:43:32Z</time>
      </trkpt>
      <trkpt lat="43.46647" lon="6.325">
        <ele>103</ele>
        <time>2023-03-03T14:43:36Z</time>
      </trkpt>
      <trkpt lat="43.46669" lon="6.32493">
        <ele>103</ele>
        <time>2023-03-03T14:44:04Z</time>
      </trkpt>
      <trkpt lat="43.46673" lon="6.32492">
        <ele>104</ele>
        <time>2023-03-03T14:44:09Z</time>
      </trkpt>
      <trkpt lat="43.46696" lon="6.32487">
        <ele>105</ele>
        <time>2023-03-03T14:44:30Z</time>
      </trkpt>
      <trkpt lat="43.467" lon="6.32486">
        <ele>106</ele>
        <time>2023-03-03T14:44:34Z</time>
      </trkpt>
      <trkpt lat="43.46715" lon="6.3248">
        <ele>105</ele>
        <time>2023-03-03T14:44:49Z</time>
      </trkpt>
      <trkpt lat="43.46719" lon="6.32481">
        <ele>107</ele>
        <time>2023-03-03T14:44:53Z</time>
      </trkpt>
      <trkpt lat="43.46728" lon="6.32479">
        <ele>111</ele>
        <time>2023-03-03T14:45:01Z</time>
      </trkpt>
      <trkpt lat="43.46732" lon="6.32477">
        <ele>112</ele>
        <time>2023-03-03T14:45:05Z</time>
      </trkpt>
      <trkpt lat="43.46736" lon="6.32477">
        <ele>113</ele>
        <time>2023-03-03T14:45:12Z</time>
      </trkpt>
      <trkpt lat="43.46739" lon="6.3248">
        <ele>113</ele>
        <time>2023-03-03T14:45:18Z</time>
      </trkpt>
      <trkpt lat="43.46745" lon="6.32495">
        <ele>111</ele>
        <time>2023-03-03T14:45:33Z</time>
      </trkpt>
      <trkpt lat="43.46751" lon="6.32508">
        <ele>109</ele>
        <time>2023-03-03T14:45:50Z</time>
      </trkpt>
      <trkpt lat="43.46753" lon="6.32513">
        <ele>109</ele>
        <time>2023-03-03T14:45:55Z</time>
      </trkpt>
      <trkpt lat="43.46755" lon="6.32518">
        <ele>109</ele>
        <time>2023-03-03T14:45:59Z</time>
      </trkpt>
      <trkpt lat="43.46759" lon="6.32527">
        <ele>111</ele>
        <time>2023-03-03T14:46:06Z</time>
      </trkpt>
      <trkpt lat="43.4676" lon="6.32533">
        <ele>113</ele>
        <time>2023-03-03T14:46:09Z</time>
      </trkpt>
      <trkpt lat="43.46772" lon="6.32547">
        <ele>111</ele>
        <time>2023-03-03T14:46:29Z</time>
      </trkpt>
      <trkpt lat="43.46774" lon="6.32549">
        <ele>110</ele>
        <time>2023-03-03T14:46:33Z</time>
      </trkpt>
      <trkpt lat="43.46778" lon="6.32553">
        <ele>110</ele>
        <time>2023-03-03T14:46:38Z</time>
      </trkpt>
      <trkpt lat="43.46781" lon="6.32557">
        <ele>110</ele>
        <time>2023-03-03T14:46:43Z</time>
      </trkpt>
      <trkpt lat="43.46789" lon="6.32568">
        <ele>108</ele>
        <time>2023-03-03T14:46:56Z</time>
      </trkpt>
      <trkpt lat="43.46795" lon="6.32575">
        <ele>108</ele>
        <time>2023-03-03T14:47:04Z</time>
      </trkpt>
      <trkpt lat="43.46797" lon="6.32579">
        <ele>106</ele>
        <time>2023-03-03T14:47:08Z</time>
      </trkpt>
      <trkpt lat="43.46799" lon="6.32584">
        <ele>106</ele>
        <time>2023-03-03T14:47:13Z</time>
      </trkpt>
      <trkpt lat="43.468" lon="6.32589">
        <ele>106</ele>
        <time>2023-03-03T14:47:17Z</time>
      </trkpt>
      <trkpt lat="43.46803" lon="6.32594">
        <ele>107</ele>
        <time>2023-03-03T14:47:21Z</time>
      </trkpt>
      <trkpt lat="43.46811" lon="6.32593">
        <ele>111</ele>
        <time>2023-03-03T14:47:28Z</time>
      </trkpt>
      <trkpt lat="43.46814" lon="6.32589">
        <ele>113</ele>
        <time>2023-03-03T14:47:31Z</time>
      </trkpt>
      <trkpt lat="43.46815" lon="6.32584">
        <ele>114</ele>
        <time>2023-03-03T14:47:35Z</time>
      </trkpt>
      <trkpt lat="43.46817" lon="6.32579">
        <ele>114</ele>
        <time>2023-03-03T14:47:39Z</time>
      </trkpt>
      <trkpt lat="43.4682" lon="6.32563">
        <ele>120</ele>
        <time>2023-03-03T14:47:49Z</time>
      </trkpt>
      <trkpt lat="43.46826" lon="6.32555">
        <ele>123</ele>
        <time>2023-03-03T14:47:55Z</time>
      </trkpt>
      <trkpt lat="43.4683" lon="6.32552">
        <ele>123</ele>
        <time>2023-03-03T14:47:58Z</time>
      </trkpt>
      <trkpt lat="43.46832" lon="6.32549">
        <ele>125</ele>
        <time>2023-03-03T14:48:02Z</time>
      </trkpt>
      <trkpt lat="43.46836" lon="6.32534">
        <ele>126</ele>
        <time>2023-03-03T14:48:17Z</time>
      </trkpt>
      <trkpt lat="43.4684" lon="6.32524">
        <ele>123</ele>
        <time>2023-03-03T14:48:26Z</time>
      </trkpt>
      <trkpt lat="43.46847" lon="6.3251">
        <ele>123</ele>
        <time>2023-03-03T14:48:37Z</time>
      </trkpt>
      <trkpt lat="43.46853" lon="6.32504">
        <ele>115</ele>
        <time>2023-03-03T14:48:48Z</time>
      </trkpt>
      <trkpt lat="43.46863" lon="6.32497">
        <ele>117</ele>
        <time>2023-03-03T14:49:04Z</time>
      </trkpt>
      <trkpt lat="43.46866" lon="6.32495">
        <ele>118</ele>
        <time>2023-03-03T14:49:09Z</time>
      </trkpt>
      <trkpt lat="43.46869" lon="6.32493">
        <ele>119</ele>
        <time>2023-03-03T14:49:15Z</time>
      </trkpt>
      <trkpt lat="43.46873" lon="6.32491">
        <ele>121</ele>
        <time>2023-03-03T14:49:20Z</time>
      </trkpt>
      <trkpt lat="43.46876" lon="6.32488">
        <ele>123</ele>
        <time>2023-03-03T14:49:24Z</time>
      </trkpt>
      <trkpt lat="43.46882" lon="6.32478">
        <ele>124</ele>
        <time>2023-03-03T14:49:36Z</time>
      </trkpt>
      <trkpt lat="43.46881" lon="6.32473">
        <ele>123</ele>
        <time>2023-03-03T14:49:41Z</time>
      </trkpt>
      <trkpt lat="43.46879" lon="6.32469">
        <ele>125</ele>
        <time>2023-03-03T14:49:47Z</time>
      </trkpt>
      <trkpt lat="43.46878" lon="6.32464">
        <ele>125</ele>
        <time>2023-03-03T14:49:51Z</time>
      </trkpt>
      <trkpt lat="43.46878" lon="6.32459">
        <ele>126</ele>
        <time>2023-03-03T14:49:57Z</time>
      </trkpt>
      <trkpt lat="43.46875" lon="6.32456">
        <ele>128</ele>
        <time>2023-03-03T14:50:03Z</time>
      </trkpt>
      <trkpt lat="43.46871" lon="6.32454">
        <ele>129</ele>
        <time>2023-03-03T14:50:13Z</time>
      </trkpt>
      <trkpt lat="43.46871" lon="6.32448">
        <ele>129</ele>
        <time>2023-03-03T14:50:31Z</time>
      </trkpt>
      <trkpt lat="43.46876" lon="6.32448">
        <ele>131</ele>
        <time>2023-03-03T14:51:48Z</time>
      </trkpt>
      <trkpt lat="43.46877" lon="6.32443">
        <ele>129</ele>
        <time>2023-03-03T14:51:51Z</time>
      </trkpt>
      <trkpt lat="43.46878" lon="6.32444">
        <ele>128</ele>
        <time>2023-03-03T14:53:04Z</time>
      </trkpt>
      <trkpt lat="43.46878" lon="6.3245">
        <ele>127</ele>
        <time>2023-03-03T14:54:19Z</time>
      </trkpt>
      <trkpt lat="43.46879" lon="6.32455">
        <ele>129</ele>
        <time>2023-03-03T14:54:25Z</time>
      </trkpt>
      <trkpt lat="43.46877" lon="6.32459">
        <ele>131</ele>
        <time>2023-03-03T14:54:34Z</time>
      </trkpt>
      <trkpt lat="43.46879" lon="6.32464">
        <ele>130</ele>
        <time>2023-03-03T14:55:09Z</time>
      </trkpt>
      <trkpt lat="43.46882" lon="6.32468">
        <ele>129</ele>
        <time>2023-03-03T14:55:16Z</time>
      </trkpt>
      <trkpt lat="43.46884" lon="6.32473">
        <ele>128</ele>
        <time>2023-03-03T14:55:22Z</time>
      </trkpt>
      <trkpt lat="43.46887" lon="6.32476">
        <ele>128</ele>
        <time>2023-03-03T14:55:27Z</time>
      </trkpt>
      <trkpt lat="43.46894" lon="6.32472">
        <ele>127</ele>
        <time>2023-03-03T14:55:36Z</time>
      </trkpt>
      <trkpt lat="43.469" lon="6.32465">
        <ele>126</ele>
        <time>2023-03-03T14:55:46Z</time>
      </trkpt>
      <trkpt lat="43.46903" lon="6.32462">
        <ele>125</ele>
        <time>2023-03-03T14:55:50Z</time>
      </trkpt>
      <trkpt lat="43.46904" lon="6.32457">
        <ele>124</ele>
        <time>2023-03-03T14:55:55Z</time>
      </trkpt>
      <trkpt lat="43.46914" lon="6.32448">
        <ele>125</ele>
        <time>2023-03-03T14:56:09Z</time>
      </trkpt>
      <trkpt lat="43.4692" lon="6.32441">
        <ele>127</ele>
        <time>2023-03-03T14:56:16Z</time>
      </trkpt>
      <trkpt lat="43.46936" lon="6.32435">
        <ele>127</ele>
        <time>2023-03-03T14:56:31Z</time>
      </trkpt>
      <trkpt lat="43.46945" lon="6.32437">
        <ele>129</ele>
        <time>2023-03-03T14:56:40Z</time>
      </trkpt>
      <trkpt lat="43.46963" lon="6.32455">
        <ele>127</ele>
        <time>2023-03-03T14:57:14Z</time>
      </trkpt>
      <trkpt lat="43.46966" lon="6.32457">
        <ele>129</ele>
        <time>2023-03-03T14:57:19Z</time>
      </trkpt>
      <trkpt lat="43.46987" lon="6.32469">
        <ele>137</ele>
        <time>2023-03-03T14:57:52Z</time>
      </trkpt>
      <trkpt lat="43.46991" lon="6.32471">
        <ele>138</ele>
        <time>2023-03-03T14:57:56Z</time>
      </trkpt>
      <trkpt lat="43.46994" lon="6.32473">
        <ele>137</ele>
        <time>2023-03-03T14:58:00Z</time>
      </trkpt>
      <trkpt lat="43.47011" lon="6.32483">
        <ele>139</ele>
        <time>2023-03-03T14:58:20Z</time>
      </trkpt>
      <trkpt lat="43.47018" lon="6.3249">
        <ele>139</ele>
        <time>2023-03-03T14:58:32Z</time>
      </trkpt>
      <trkpt lat="43.47021" lon="6.32492">
        <ele>139</ele>
        <time>2023-03-03T14:58:37Z</time>
      </trkpt>
      <trkpt lat="43.47025" lon="6.32494">
        <ele>140</ele>
        <time>2023-03-03T14:58:42Z</time>
      </trkpt>
      <trkpt lat="43.47028" lon="6.32496">
        <ele>143</ele>
        <time>2023-03-03T14:58:48Z</time>
      </trkpt>
      <trkpt lat="43.47032" lon="6.32496">
        <ele>143</ele>
        <time>2023-03-03T14:58:54Z</time>
      </trkpt>
      <trkpt lat="43.4704" lon="6.32495">
        <ele>145</ele>
        <time>2023-03-03T14:59:05Z</time>
      </trkpt>
      <trkpt lat="43.47049" lon="6.32494">
        <ele>147</ele>
        <time>2023-03-03T14:59:20Z</time>
      </trkpt>
      <trkpt lat="43.47058" lon="6.32492">
        <ele>151</ele>
        <time>2023-03-03T14:59:38Z</time>
      </trkpt>
      <trkpt lat="43.47068" lon="6.32491">
        <ele>154</ele>
        <time>2023-03-03T14:59:55Z</time>
      </trkpt>
      <trkpt lat="43.47076" lon="6.32485">
        <ele>156</ele>
        <time>2023-03-03T15:00:10Z</time>
      </trkpt>
      <trkpt lat="43.47085" lon="6.32481">
        <ele>157</ele>
        <time>2023-03-03T15:00:28Z</time>
      </trkpt>
      <trkpt lat="43.47093" lon="6.32487">
        <ele>157</ele>
        <time>2023-03-03T15:00:43Z</time>
      </trkpt>
      <trkpt lat="43.47103" lon="6.32486">
        <ele>155</ele>
        <time>2023-03-03T15:00:56Z</time>
      </trkpt>
      <trkpt lat="43.47111" lon="6.32481">
        <ele>151</ele>
        <time>2023-03-03T15:01:09Z</time>
      </trkpt>
      <trkpt lat="43.47121" lon="6.3248">
        <ele>151</ele>
        <time>2023-03-03T15:01:22Z</time>
      </trkpt>
      <trkpt lat="43.47144" lon="6.32462">
        <ele>152</ele>
        <time>2023-03-03T15:01:53Z</time>
      </trkpt>
      <trkpt lat="43.47153" lon="6.32464">
        <ele>155</ele>
        <time>2023-03-03T15:02:05Z</time>
      </trkpt>
      <trkpt lat="43.47162" lon="6.32469">
        <ele>158</ele>
        <time>2023-03-03T15:02:21Z</time>
      </trkpt>
      <trkpt lat="43.47171" lon="6.32475">
        <ele>161</ele>
        <time>2023-03-03T15:02:30Z</time>
      </trkpt>
      <trkpt lat="43.4718" lon="6.32472">
        <ele>158</ele>
        <time>2023-03-03T15:02:38Z</time>
      </trkpt>
      <trkpt lat="43.47186" lon="6.32463">
        <ele>157</ele>
        <time>2023-03-03T15:02:50Z</time>
      </trkpt>
      <trkpt lat="43.47191" lon="6.32452">
        <ele>157</ele>
        <time>2023-03-03T15:03:02Z</time>
      </trkpt>
      <trkpt lat="43.47198" lon="6.32428">
        <ele>155</ele>
        <time>2023-03-03T15:03:26Z</time>
      </trkpt>
      <trkpt lat="43.47196" lon="6.32389">
        <ele>155</ele>
        <time>2023-03-03T15:04:01Z</time>
      </trkpt>
      <trkpt lat="43.47196" lon="6.32377">
        <ele>156</ele>
        <time>2023-03-03T15:04:12Z</time>
      </trkpt>
      <trkpt lat="43.47213" lon="6.32363">
        <ele>158</ele>
        <time>2023-03-03T15:04:33Z</time>
      </trkpt>
      <trkpt lat="43.47215" lon="6.32359">
        <ele>157</ele>
        <time>2023-03-03T15:04:37Z</time>
      </trkpt>
      <trkpt lat="43.47219" lon="6.32358">
        <ele>157</ele>
        <time>2023-03-03T15:04:43Z</time>
      </trkpt>
      <trkpt lat="43.47223" lon="6.3235">
        <ele>156</ele>
        <time>2023-03-03T15:04:53Z</time>
      </trkpt>
      <trkpt lat="43.47222" lon="6.32345">
        <ele>157</ele>
        <time>2023-03-03T15:05:00Z</time>
      </trkpt>
      <trkpt lat="43.47222" lon="6.3234">
        <ele>156</ele>
        <time>2023-03-03T15:05:10Z</time>
      </trkpt>
      <trkpt lat="43.47221" lon="6.32335">
        <ele>158</ele>
        <time>2023-03-03T15:05:51Z</time>
      </trkpt>
      <trkpt lat="43.47223" lon="6.3233">
        <ele>158</ele>
        <time>2023-03-03T15:05:56Z</time>
      </trkpt>
      <trkpt lat="43.47225" lon="6.32325">
        <ele>158</ele>
        <time>2023-03-03T15:05:59Z</time>
      </trkpt>
      <trkpt lat="43.47232" lon="6.32324">
        <ele>155</ele>
        <time>2023-03-03T15:06:09Z</time>
      </trkpt>
      <trkpt lat="43.47244" lon="6.32329">
        <ele>153</ele>
        <time>2023-03-03T15:06:22Z</time>
      </trkpt>
      <trkpt lat="43.4725" lon="6.32324">
        <ele>152</ele>
        <time>2023-03-03T15:06:30Z</time>
      </trkpt>
      <trkpt lat="43.47253" lon="6.32321">
        <ele>152</ele>
        <time>2023-03-03T15:06:34Z</time>
      </trkpt>
      <trkpt lat="43.47261" lon="6.32317">
        <ele>153</ele>
        <time>2023-03-03T15:06:43Z</time>
      </trkpt>
      <trkpt lat="43.47272" lon="6.32315">
        <ele>156</ele>
        <time>2023-03-03T15:06:53Z</time>
      </trkpt>
      <trkpt lat="43.47291" lon="6.32305">
        <ele>156</ele>
        <time>2023-03-03T15:07:16Z</time>
      </trkpt>
      <trkpt lat="43.47298" lon="6.32301">
        <ele>153</ele>
        <time>2023-03-03T15:07:25Z</time>
      </trkpt>
      <trkpt lat="43.47317" lon="6.32297">
        <ele>151</ele>
        <time>2023-03-03T15:07:46Z</time>
      </trkpt>
      <trkpt lat="43.47329" lon="6.32297">
        <ele>155</ele>
        <time>2023-03-03T15:08:00Z</time>
      </trkpt>
      <trkpt lat="43.47333" lon="6.32296">
        <ele>155</ele>
        <time>2023-03-03T15:08:05Z</time>
      </trkpt>
      <trkpt lat="43.47337" lon="6.32296">
        <ele>155</ele>
        <time>2023-03-03T15:08:10Z</time>
      </trkpt>
      <trkpt lat="43.47352" lon="6.32294">
        <ele>158</ele>
        <time>2023-03-03T15:08:24Z</time>
      </trkpt>
      <trkpt lat="43.47356" lon="6.32294">
        <ele>158</ele>
        <time>2023-03-03T15:08:27Z</time>
      </trkpt>
      <trkpt lat="43.47363" lon="6.32294">
        <ele>156</ele>
        <time>2023-03-03T15:08:35Z</time>
      </trkpt>
      <trkpt lat="43.47367" lon="6.32295">
        <ele>154</ele>
        <time>2023-03-03T15:08:40Z</time>
      </trkpt>
      <trkpt lat="43.47385" lon="6.32301">
        <ele>154</ele>
        <time>2023-03-03T15:09:01Z</time>
      </trkpt>
      <trkpt lat="43.47389" lon="6.32303">
        <ele>153</ele>
        <time>2023-03-03T15:09:05Z</time>
      </trkpt>
      <trkpt lat="43.47392" lon="6.32304">
        <ele>151</ele>
        <time>2023-03-03T15:09:09Z</time>
      </trkpt>
      <trkpt lat="43.47396" lon="6.32304">
        <ele>151</ele>
        <time>2023-03-03T15:09:13Z</time>
      </trkpt>
      <trkpt lat="43.47404" lon="6.32306">
        <ele>152</ele>
        <time>2023-03-03T15:09:21Z</time>
      </trkpt>
      <trkpt lat="43.47424" lon="6.3231">
        <ele>156</ele>
        <time>2023-03-03T15:09:38Z</time>
      </trkpt>
      <trkpt lat="43.47431" lon="6.32315">
        <ele>157</ele>
        <time>2023-03-03T15:09:48Z</time>
      </trkpt>
      <trkpt lat="43.47434" lon="6.32314">
        <ele>158</ele>
        <time>2023-03-03T15:09:51Z</time>
      </trkpt>
      <trkpt lat="43.47442" lon="6.32316">
        <ele>154</ele>
        <time>2023-03-03T15:09:58Z</time>
      </trkpt>
      <trkpt lat="43.47446" lon="6.32318">
        <ele>154</ele>
        <time>2023-03-03T15:10:03Z</time>
      </trkpt>
      <trkpt lat="43.47449" lon="6.3232">
        <ele>157</ele>
        <time>2023-03-03T15:10:08Z</time>
      </trkpt>
      <trkpt lat="43.47478" lon="6.32324">
        <ele>159</ele>
        <time>2023-03-03T15:10:40Z</time>
      </trkpt>
      <trkpt lat="43.47486" lon="6.32329">
        <ele>158</ele>
        <time>2023-03-03T15:10:48Z</time>
      </trkpt>
      <trkpt lat="43.4749" lon="6.3233">
        <ele>158</ele>
        <time>2023-03-03T15:10:52Z</time>
      </trkpt>
      <trkpt lat="43.475" lon="6.32339">
        <ele>155</ele>
        <time>2023-03-03T15:11:06Z</time>
      </trkpt>
      <trkpt lat="43.47504" lon="6.32339">
        <ele>155</ele>
        <time>2023-03-03T15:11:11Z</time>
      </trkpt>
      <trkpt lat="43.47507" lon="6.32338">
        <ele>155</ele>
        <time>2023-03-03T15:11:15Z</time>
      </trkpt>
      <trkpt lat="43.47511" lon="6.32336">
        <ele>155</ele>
        <time>2023-03-03T15:11:19Z</time>
      </trkpt>
      <trkpt lat="43.47518" lon="6.32333">
        <ele>156</ele>
        <time>2023-03-03T15:11:27Z</time>
      </trkpt>
      <trkpt lat="43.47521" lon="6.32332">
        <ele>155</ele>
        <time>2023-03-03T15:11:31Z</time>
      </trkpt>
      <trkpt lat="43.47525" lon="6.3233">
        <ele>155</ele>
        <time>2023-03-03T15:11:35Z</time>
      </trkpt>
      <trkpt lat="43.47534" lon="6.32322">
        <ele>152</ele>
        <time>2023-03-03T15:11:50Z</time>
      </trkpt>
      <trkpt lat="43.47536" lon="6.32318">
        <ele>151</ele>
        <time>2023-03-03T15:11:55Z</time>
      </trkpt>
      <trkpt lat="43.47537" lon="6.32313">
        <ele>149</ele>
        <time>2023-03-03T15:12:00Z</time>
      </trkpt>
      <trkpt lat="43.47535" lon="6.32308">
        <ele>148</ele>
        <time>2023-03-03T15:12:05Z</time>
      </trkpt>
      <trkpt lat="43.47533" lon="6.32304">
        <ele>148</ele>
        <time>2023-03-03T15:12:10Z</time>
      </trkpt>
      <trkpt lat="43.47524" lon="6.32272">
        <ele>150</ele>
        <time>2023-03-03T15:12:33Z</time>
      </trkpt>
      <trkpt lat="43.47525" lon="6.32261">
        <ele>149</ele>
        <time>2023-03-03T15:12:41Z</time>
      </trkpt>
      <trkpt lat="43.47529" lon="6.32253">
        <ele>148</ele>
        <time>2023-03-03T15:12:50Z</time>
      </trkpt>
      <trkpt lat="43.47536" lon="6.32241">
        <ele>148</ele>
        <time>2023-03-03T15:13:02Z</time>
      </trkpt>
      <trkpt lat="43.47542" lon="6.32234">
        <ele>145</ele>
        <time>2023-03-03T15:13:12Z</time>
      </trkpt>
      <trkpt lat="43.47545" lon="6.32231">
        <ele>145</ele>
        <time>2023-03-03T15:13:16Z</time>
      </trkpt>
      <trkpt lat="43.47556" lon="6.32216">
        <ele>142</ele>
        <time>2023-03-03T15:13:34Z</time>
      </trkpt>
      <trkpt lat="43.47564" lon="6.32205">
        <ele>142</ele>
        <time>2023-03-03T15:13:46Z</time>
      </trkpt>
      <trkpt lat="43.47569" lon="6.32195">
        <ele>143</ele>
        <time>2023-03-03T15:13:55Z</time>
      </trkpt>
      <trkpt lat="43.47569" lon="6.3219">
        <ele>143</ele>
        <time>2023-03-03T15:13:59Z</time>
      </trkpt>
      <trkpt lat="43.47571" lon="6.32186">
        <ele>143</ele>
        <time>2023-03-03T15:14:03Z</time>
      </trkpt>
      <trkpt lat="43.47583" lon="6.32147">
        <ele>137</ele>
        <time>2023-03-03T15:14:35Z</time>
      </trkpt>
      <trkpt lat="43.47586" lon="6.32131">
        <ele>135</ele>
        <time>2023-03-03T15:14:49Z</time>
      </trkpt>
      <trkpt lat="43.47587" lon="6.32127">
        <ele>136</ele>
        <time>2023-03-03T15:14:53Z</time>
      </trkpt>
      <trkpt lat="43.47592" lon="6.32113">
        <ele>134</ele>
        <time>2023-03-03T15:15:05Z</time>
      </trkpt>
      <trkpt lat="43.47594" lon="6.32108">
        <ele>136</ele>
        <time>2023-03-03T15:15:09Z</time>
      </trkpt>
      <trkpt lat="43.47597" lon="6.32105">
        <ele>136</ele>
        <time>2023-03-03T15:15:14Z</time>
      </trkpt>
      <trkpt lat="43.47601" lon="6.32105">
        <ele>136</ele>
        <time>2023-03-03T15:15:20Z</time>
      </trkpt>
      <trkpt lat="43.47605" lon="6.32104">
        <ele>135</ele>
        <time>2023-03-03T15:15:25Z</time>
      </trkpt>
      <trkpt lat="43.47609" lon="6.32106">
        <ele>135</ele>
        <time>2023-03-03T15:15:30Z</time>
      </trkpt>
      <trkpt lat="43.47612" lon="6.32104">
        <ele>134</ele>
        <time>2023-03-03T15:15:35Z</time>
      </trkpt>
      <trkpt lat="43.47616" lon="6.32102">
        <ele>135</ele>
        <time>2023-03-03T15:15:40Z</time>
      </trkpt>
      <trkpt lat="43.47619" lon="6.32105">
        <ele>135</ele>
        <time>2023-03-03T15:15:46Z</time>
      </trkpt>
      <trkpt lat="43.47621" lon="6.3211">
        <ele>135</ele>
        <time>2023-03-03T15:15:52Z</time>
      </trkpt>
      <trkpt lat="43.47624" lon="6.32114">
        <ele>135</ele>
        <time>2023-03-03T15:15:58Z</time>
      </trkpt>
      <trkpt lat="43.47627" lon="6.32118">
        <ele>134</ele>
        <time>2023-03-03T15:16:03Z</time>
      </trkpt>
      <trkpt lat="43.47641" lon="6.32143">
        <ele>131</ele>
        <time>2023-03-03T15:16:35Z</time>
      </trkpt>
      <trkpt lat="43.47643" lon="6.32148">
        <ele>130</ele>
        <time>2023-03-03T15:16:41Z</time>
      </trkpt>
      <trkpt lat="43.47651" lon="6.32159">
        <ele>130</ele>
        <time>2023-03-03T15:16:56Z</time>
      </trkpt>
      <trkpt lat="43.47657" lon="6.32173">
        <ele>134</ele>
        <time>2023-03-03T15:17:09Z</time>
      </trkpt>
      <trkpt lat="43.4766" lon="6.32176">
        <ele>133</ele>
        <time>2023-03-03T15:17:14Z</time>
      </trkpt>
      <trkpt lat="43.47662" lon="6.32181">
        <ele>135</ele>
        <time>2023-03-03T15:17:20Z</time>
      </trkpt>
      <trkpt lat="43.47669" lon="6.32194">
        <ele>136</ele>
        <time>2023-03-03T15:17:38Z</time>
      </trkpt>
      <trkpt lat="43.47671" lon="6.32197">
        <ele>135</ele>
        <time>2023-03-03T15:17:44Z</time>
      </trkpt>
      <trkpt lat="43.47673" lon="6.32202">
        <ele>133</ele>
        <time>2023-03-03T15:17:49Z</time>
      </trkpt>
      <trkpt lat="43.47675" lon="6.32206">
        <ele>133</ele>
        <time>2023-03-03T15:17:53Z</time>
      </trkpt>
      <trkpt lat="43.47683" lon="6.32218">
        <ele>131</ele>
        <time>2023-03-03T15:18:10Z</time>
      </trkpt>
      <trkpt lat="43.47685" lon="6.32222">
        <ele>130</ele>
        <time>2023-03-03T15:18:16Z</time>
      </trkpt>
      <trkpt lat="43.47701" lon="6.32251">
        <ele>128</ele>
        <time>2023-03-03T15:18:49Z</time>
      </trkpt>
      <trkpt lat="43.47702" lon="6.32257">
        <ele>129</ele>
        <time>2023-03-03T15:18:54Z</time>
      </trkpt>
      <trkpt lat="43.47702" lon="6.32267">
        <ele>129</ele>
        <time>2023-03-03T15:19:03Z</time>
      </trkpt>
      <trkpt lat="43.47703" lon="6.32273">
        <ele>130</ele>
        <time>2023-03-03T15:19:07Z</time>
      </trkpt>
      <trkpt lat="43.47712" lon="6.32302">
        <ele>135</ele>
        <time>2023-03-03T15:19:37Z</time>
      </trkpt>
      <trkpt lat="43.47713" lon="6.32307">
        <ele>135</ele>
        <time>2023-03-03T15:19:42Z</time>
      </trkpt>
      <trkpt lat="43.47714" lon="6.32313">
        <ele>134</ele>
        <time>2023-03-03T15:19:48Z</time>
      </trkpt>
      <trkpt lat="43.47715" lon="6.32317">
        <ele>132</ele>
        <time>2023-03-03T15:19:54Z</time>
      </trkpt>
      <trkpt lat="43.47716" lon="6.32323">
        <ele>132</ele>
        <time>2023-03-03T15:20:01Z</time>
      </trkpt>
      <trkpt lat="43.47721" lon="6.32332">
        <ele>129</ele>
        <time>2023-03-03T15:20:14Z</time>
      </trkpt>
      <trkpt lat="43.47723" lon="6.32337">
        <ele>127</ele>
        <time>2023-03-03T15:20:21Z</time>
      </trkpt>
      <trkpt lat="43.47728" lon="6.32351">
        <ele>122</ele>
        <time>2023-03-03T15:20:37Z</time>
      </trkpt>
      <trkpt lat="43.47731" lon="6.32355">
        <ele>122</ele>
        <time>2023-03-03T15:20:42Z</time>
      </trkpt>
      <trkpt lat="43.47733" lon="6.32359">
        <ele>121</ele>
        <time>2023-03-03T15:20:47Z</time>
      </trkpt>
      <trkpt lat="43.47735" lon="6.32363">
        <ele>120</ele>
        <time>2023-03-03T15:20:52Z</time>
      </trkpt>
      <trkpt lat="43.47738" lon="6.32366">
        <ele>119</ele>
        <time>2023-03-03T15:20:57Z</time>
      </trkpt>
      <trkpt lat="43.47741" lon="6.32371">
        <ele>118</ele>
        <time>2023-03-03T15:21:02Z</time>
      </trkpt>
      <trkpt lat="43.47748" lon="6.32384">
        <ele>117</ele>
        <time>2023-03-03T15:21:16Z</time>
      </trkpt>
      <trkpt lat="43.47762" lon="6.32423">
        <ele>121</ele>
        <time>2023-03-03T15:21:45Z</time>
      </trkpt>
      <trkpt lat="43.4777" lon="6.32448">
        <ele>119</ele>
        <time>2023-03-03T15:22:06Z</time>
      </trkpt>
      <trkpt lat="43.47771" lon="6.32452">
        <ele>120</ele>
        <time>2023-03-03T15:22:10Z</time>
      </trkpt>
      <trkpt lat="43.47774" lon="6.32462">
        <ele>120</ele>
        <time>2023-03-03T15:22:17Z</time>
      </trkpt>
      <trkpt lat="43.47776" lon="6.32478">
        <ele>122</ele>
        <time>2023-03-03T15:22:28Z</time>
      </trkpt>
      <trkpt lat="43.47773" lon="6.32537">
        <ele>144</ele>
        <time>2023-03-03T15:22:59Z</time>
      </trkpt>
      <trkpt lat="43.47777" lon="6.3254">
        <ele>137</ele>
        <time>2023-03-03T15:23:10Z</time>
      </trkpt>
      <trkpt lat="43.4778" lon="6.32561">
        <ele>128</ele>
        <time>2023-03-03T15:23:32Z</time>
      </trkpt>
      <trkpt lat="43.47781" lon="6.32572">
        <ele>129</ele>
        <time>2023-03-03T15:23:41Z</time>
      </trkpt>
      <trkpt lat="43.47781" lon="6.32577">
        <ele>129</ele>
        <time>2023-03-03T15:23:45Z</time>
      </trkpt>
      <trkpt lat="43.47788" lon="6.32589">
        <ele>126</ele>
        <time>2023-03-03T15:24:02Z</time>
      </trkpt>
      <trkpt lat="43.47793" lon="6.32603">
        <ele>128</ele>
        <time>2023-03-03T15:24:15Z</time>
      </trkpt>
      <trkpt lat="43.47804" lon="6.32625">
        <ele>130</ele>
        <time>2023-03-03T15:24:39Z</time>
      </trkpt>
      <trkpt lat="43.47806" lon="6.3263">
        <ele>131</ele>
        <time>2023-03-03T15:24:43Z</time>
      </trkpt>
      <trkpt lat="43.47808" lon="6.32634">
        <ele>132</ele>
        <time>2023-03-03T15:24:49Z</time>
      </trkpt>
      <trkpt lat="43.47812" lon="6.32643">
        <ele>132</ele>
        <time>2023-03-03T15:24:58Z</time>
      </trkpt>
      <trkpt lat="43.47817" lon="6.32651">
        <ele>134</ele>
        <time>2023-03-03T15:25:09Z</time>
      </trkpt>
      <trkpt lat="43.47818" lon="6.32656">
        <ele>135</ele>
        <time>2023-03-03T15:25:14Z</time>
      </trkpt>
      <trkpt lat="43.47821" lon="6.3266">
        <ele>136</ele>
        <time>2023-03-03T15:25:20Z</time>
      </trkpt>
      <trkpt lat="43.47823" lon="6.32664">
        <ele>138</ele>
        <time>2023-03-03T15:25:25Z</time>
      </trkpt>
      <trkpt lat="43.47826" lon="6.32675">
        <ele>137</ele>
        <time>2023-03-03T15:25:49Z</time>
      </trkpt>
      <trkpt lat="43.4783" lon="6.32676">
        <ele>135</ele>
        <time>2023-03-03T15:25:57Z</time>
      </trkpt>
      <trkpt lat="43.47835" lon="6.32683">
        <ele>134</ele>
        <time>2023-03-03T15:26:09Z</time>
      </trkpt>
      <trkpt lat="43.47832" lon="6.32681">
        <ele>133</ele>
        <time>2023-03-03T15:27:10Z</time>
      </trkpt>
      <trkpt lat="43.47834" lon="6.32685">
        <ele>135</ele>
        <time>2023-03-03T15:29:08Z</time>
      </trkpt>
      <trkpt lat="43.47854" lon="6.32703">
        <ele>132</ele>
        <time>2023-03-03T15:29:33Z</time>
      </trkpt>
      <trkpt lat="43.47858" lon="6.32705">
        <ele>131</ele>
        <time>2023-03-03T15:29:37Z</time>
      </trkpt>
      <trkpt lat="43.47869" lon="6.32713">
        <ele>130</ele>
        <time>2023-03-03T15:29:47Z</time>
      </trkpt>
      <trkpt lat="43.47875" lon="6.32722">
        <ele>129</ele>
        <time>2023-03-03T15:29:54Z</time>
      </trkpt>
      <trkpt lat="43.47878" lon="6.32725">
        <ele>129</ele>
        <time>2023-03-03T15:29:57Z</time>
      </trkpt>
      <trkpt lat="43.47881" lon="6.32729">
        <ele>129</ele>
        <time>2023-03-03T15:30:00Z</time>
      </trkpt>
      <trkpt lat="43.47884" lon="6.32731">
        <ele>129</ele>
        <time>2023-03-03T15:30:03Z</time>
      </trkpt>
      <trkpt lat="43.47892" lon="6.32737">
        <ele>128</ele>
        <time>2023-03-03T15:30:11Z</time>
      </trkpt>
      <trkpt lat="43.47899" lon="6.32743">
        <ele>127</ele>
        <time>2023-03-03T15:30:17Z</time>
      </trkpt>
      <trkpt lat="43.47903" lon="6.32745">
        <ele>128</ele>
        <time>2023-03-03T15:30:20Z</time>
      </trkpt>
      <trkpt lat="43.47912" lon="6.32747">
        <ele>127</ele>
        <time>2023-03-03T15:30:26Z</time>
      </trkpt>
      <trkpt lat="43.47916" lon="6.32748">
        <ele>127</ele>
        <time>2023-03-03T15:30:29Z</time>
      </trkpt>
      <trkpt lat="43.47927" lon="6.32749">
        <ele>127</ele>
        <time>2023-03-03T15:30:38Z</time>
      </trkpt>
      <trkpt lat="43.4793" lon="6.32748">
        <ele>128</ele>
        <time>2023-03-03T15:30:41Z</time>
      </trkpt>
      <trkpt lat="43.47943" lon="6.32747">
        <ele>128</ele>
        <time>2023-03-03T15:30:51Z</time>
      </trkpt>
      <trkpt lat="43.47951" lon="6.32747">
        <ele>129</ele>
        <time>2023-03-03T15:30:57Z</time>
      </trkpt>
      <trkpt lat="43.47968" lon="6.32747">
        <ele>135</ele>
        <time>2023-03-03T15:31:10Z</time>
      </trkpt>
      <trkpt lat="43.47978" lon="6.32745">
        <ele>135</ele>
        <time>2023-03-03T15:31:18Z</time>
      </trkpt>
      <trkpt lat="43.47987" lon="6.32744">
        <ele>135</ele>
        <time>2023-03-03T15:31:25Z</time>
      </trkpt>
      <trkpt lat="43.47997" lon="6.32742">
        <ele>137</ele>
        <time>2023-03-03T15:31:33Z</time>
      </trkpt>
      <trkpt lat="43.48016" lon="6.32738">
        <ele>138</ele>
        <time>2023-03-03T15:31:50Z</time>
      </trkpt>
      <trkpt lat="43.48036" lon="6.32739">
        <ele>135</ele>
        <time>2023-03-03T15:32:07Z</time>
      </trkpt>
      <trkpt lat="43.48055" lon="6.32745">
        <ele>134</ele>
        <time>2023-03-03T15:32:24Z</time>
      </trkpt>
      <trkpt lat="43.48062" lon="6.32752">
        <ele>136</ele>
        <time>2023-03-03T15:32:33Z</time>
      </trkpt>
      <trkpt lat="43.48071" lon="6.32758">
        <ele>136</ele>
        <time>2023-03-03T15:32:43Z</time>
      </trkpt>
      <trkpt lat="43.48086" lon="6.32775">
        <ele>136</ele>
        <time>2023-03-03T15:33:01Z</time>
      </trkpt>
    </trkseg>
  </trk>
</gpx>